<?xml version='1.0' encoding='UTF-8'?><gpx version="1.1" creator="JPX - https://github.com/jenetics/jpx" xmlns="http://www.topografix.com/GPX/1/1"><trk><trkseg><trkpt lat="45.375213425438766" lon="10.529429537542162"><ele>117.0</ele><time>2026-04-02T15:32:21.999Z</time></trkpt><trkpt lat="45.37517725441856" lon="10.529517371484319"><ele>117.00000000000001</ele><time>2026-04-02T15:32:50.998Z</time></trkpt><trkpt lat="45.37517522082773" lon="10.529612478303411"><ele>117.0</ele><time>2026-04-02T15:32:58.998Z</time></trkpt><trkpt lat="45.375191855561226" lon="10.529699753121255"><ele>117.0</ele><time>2026-04-02T15:33:07.998Z</time></trkpt><trkpt lat="45.37523227047456" lon="10.529809664239236"><ele>117.00000000000001</ele><time>2026-04-02T15:33:20.997Z</time></trkpt><trkpt lat="45.37524958276939" lon="10.529915090078132"><ele>117.0</ele><time>2026-04-02T15:33:32.997Z</time></trkpt><trkpt lat="45.37524535719635" lon="10.53001484550076"><ele>117.0</ele><time>2026-04-02T15:33:36.997Z</time></trkpt><trkpt lat="45.37524585997086" lon="10.530110352499568"><ele>117.57142857142858</ele><time>2026-04-02T15:33:40.997Z</time></trkpt><trkpt lat="45.37523589519416" lon="10.530206095222482"><ele>118.14285714285715</ele><time>2026-04-02T15:33:47.997Z</time></trkpt><trkpt lat="45.375258355597154" lon="10.530310848976136"><ele>118.71428571428572</ele><time>2026-04-02T15:33:56.996Z</time></trkpt><trkpt lat="45.375259146170805" lon="10.530404053879298"><ele>119.28571428571428</ele><time>2026-04-02T15:34:02.996Z</time></trkpt><trkpt lat="45.37528883453396" lon="10.530489844734658"><ele>119.85714285714285</ele><time>2026-04-02T15:34:10.996Z</time></trkpt><trkpt lat="45.37532790219381" lon="10.530564969320707"><ele>120.42857142857142</ele><time>2026-04-02T15:34:22.996Z</time></trkpt><trkpt lat="45.375384354157205" lon="10.530620895480272"><ele>121.0</ele><time>2026-04-02T15:34:40.995Z</time></trkpt><trkpt lat="45.375311310206726" lon="10.53060758492015"><ele>121.0</ele><time>2026-04-02T15:35:09.995Z</time></trkpt><trkpt lat="45.37525773791507" lon="10.530551245788752"><ele>120.99999999999999</ele><time>2026-04-02T15:35:18.994Z</time></trkpt><trkpt lat="45.37524355621442" lon="10.53046172986933"><ele>121.0</ele><time>2026-04-02T15:35:26.994Z</time></trkpt><trkpt lat="45.37523740609943" lon="10.53036087464082"><ele>121.0</ele><time>2026-04-02T15:35:33.994Z</time></trkpt><trkpt lat="45.375235753024924" lon="10.530248052071492"><ele>120.99999999999999</ele><time>2026-04-02T15:35:37.994Z</time></trkpt><trkpt lat="45.375252022662146" lon="10.530143004597598"><ele>121.0</ele><time>2026-04-02T15:35:41.994Z</time></trkpt><trkpt lat="45.37528128778812" lon="10.530047008721484"><ele>121.0</ele><time>2026-04-02T15:35:45.994Z</time></trkpt><trkpt lat="45.37525621688438" lon="10.52994764469344"><ele>121.0</ele><time>2026-04-02T15:35:50.994Z</time></trkpt><trkpt lat="45.37522424303193" lon="10.529865047979277"><ele>120.99999999999999</ele><time>2026-04-02T15:35:56.993Z</time></trkpt><trkpt lat="45.37521116110843" lon="10.529764757441166"><ele>121.0</ele><time>2026-04-02T15:36:01.993Z</time></trkpt><trkpt lat="45.37520373304443" lon="10.529672564705718"><ele>121.0</ele><time>2026-04-02T15:36:08.993Z</time></trkpt><trkpt lat="45.37520831099851" lon="10.529564017829555"><ele>120.99999999999999</ele><time>2026-04-02T15:36:12.993Z</time></trkpt><trkpt lat="45.375239107924855" lon="10.529481693129778"><ele>121.0</ele><time>2026-04-02T15:36:20.993Z</time></trkpt><trkpt lat="45.37519142207215" lon="10.529421837117312"><ele>121.0</ele><time>2026-04-02T15:36:31.993Z</time></trkpt><trkpt lat="45.375165906906254" lon="10.529506030258938"><ele>121.0</ele><time>2026-04-02T15:36:40.992Z</time></trkpt><trkpt lat="45.3751586258936" lon="10.52960869788077"><ele>120.99999999999999</ele><time>2026-04-02T15:36:48.992Z</time></trkpt><trkpt lat="45.37516380225536" lon="10.529703351530477"><ele>121.0</ele><time>2026-04-02T15:36:55.992Z</time></trkpt><trkpt lat="45.37519310013486" lon="10.529808302285998"><ele>121.0</ele><time>2026-04-02T15:37:03.992Z</time></trkpt><trkpt lat="45.37521560358861" lon="10.529906228533914"><ele>120.99999999999999</ele><time>2026-04-02T15:37:12.992Z</time></trkpt><trkpt lat="45.37522483439818" lon="10.530005922585291"><ele>121.0</ele><time>2026-04-02T15:37:16.992Z</time></trkpt><trkpt lat="45.375191091789084" lon="10.530102559067993"><ele>121.0</ele><time>2026-04-02T15:37:20.991Z</time></trkpt><trkpt lat="45.37519464130001" lon="10.530194504472368"><ele>121.0</ele><time>2026-04-02T15:37:25.991Z</time></trkpt><trkpt lat="45.37522653714846" lon="10.530289247021619"><ele>120.99999999999999</ele><time>2026-04-02T15:37:31.991Z</time></trkpt><trkpt lat="45.375257604400964" lon="10.530378746706724"><ele>121.0</ele><time>2026-04-02T15:37:37.991Z</time></trkpt><trkpt lat="45.375275187961435" lon="10.530465616622527"><ele>121.0</ele><time>2026-04-02T15:37:43.991Z</time></trkpt><trkpt lat="45.37529206611409" lon="10.530567807819608"><ele>120.99999999999999</ele><time>2026-04-02T15:37:50.991Z</time></trkpt><trkpt lat="45.37529902913328" lon="10.530669426658669"><ele>121.0</ele><time>2026-04-02T15:37:56.991Z</time></trkpt><trkpt lat="45.37531475271755" lon="10.530762065331722"><ele>121.0</ele><time>2026-04-02T15:38:01.99Z</time></trkpt><trkpt lat="45.37530671397161" lon="10.530862932213449"><ele>121.0</ele><time>2026-04-02T15:38:06.99Z</time></trkpt><trkpt lat="45.37527662798066" lon="10.530944997599128"><ele>120.99999999999999</ele><time>2026-04-02T15:38:11.99Z</time></trkpt><trkpt lat="45.37530129050775" lon="10.531047833091895"><ele>121.0</ele><time>2026-04-02T15:38:15.99Z</time></trkpt><trkpt lat="45.375323403784265" lon="10.531135783724599"><ele>121.0</ele><time>2026-04-02T15:38:20.99Z</time></trkpt><trkpt lat="45.375349787914566" lon="10.531218269211676"><ele>120.99999999999999</ele><time>2026-04-02T15:38:27.99Z</time></trkpt><trkpt lat="45.37536734104613" lon="10.531330048005099"><ele>121.0</ele><time>2026-04-02T15:38:35.99Z</time></trkpt><trkpt lat="45.37537574019965" lon="10.531430435356217"><ele>121.0</ele><time>2026-04-02T15:38:40.99Z</time></trkpt><trkpt lat="45.375382785567275" lon="10.531531102095157"><ele>121.42857142857142</ele><time>2026-04-02T15:38:48.989Z</time></trkpt><trkpt lat="45.37538884165444" lon="10.531634634999309"><ele>121.85714285714285</ele><time>2026-04-02T15:38:53.989Z</time></trkpt><trkpt lat="45.37540372924577" lon="10.531734390658066"><ele>122.28571428571428</ele><time>2026-04-02T15:38:58.989Z</time></trkpt><trkpt lat="45.37541312106418" lon="10.531834109005864"><ele>122.71428571428572</ele><time>2026-04-02T15:39:04.989Z</time></trkpt><trkpt lat="45.37545410251136" lon="10.531928124455499"><ele>123.14285714285715</ele><time>2026-04-02T15:39:16.989Z</time></trkpt><trkpt lat="45.375470725823185" lon="10.5320264034268"><ele>123.57142857142858</ele><time>2026-04-02T15:39:22.988Z</time></trkpt><trkpt lat="45.37547046441882" lon="10.532133580102524"><ele>124.0</ele><time>2026-04-02T15:39:27.988Z</time></trkpt><trkpt lat="45.37545054846795" lon="10.532231388392738"><ele>124.42857142857143</ele><time>2026-04-02T15:39:34.988Z</time></trkpt><trkpt lat="45.375477081881925" lon="10.532326186946992"><ele>124.85714285714286</ele><time>2026-04-02T15:39:47.988Z</time></trkpt><trkpt lat="45.3754986040809" lon="10.532427608073665"><ele>125.28571428571429</ele><time>2026-04-02T15:39:56.988Z</time></trkpt><trkpt lat="45.375481985409415" lon="10.532532327127274"><ele>125.71428571428572</ele><time>2026-04-02T15:40:01.988Z</time></trkpt><trkpt lat="45.37546762581923" lon="10.53264268480083"><ele>126.14285714285714</ele><time>2026-04-02T15:40:06.987Z</time></trkpt><trkpt lat="45.375469423626114" lon="10.5327413068156"><ele>126.57142857142858</ele><time>2026-04-02T15:40:12.987Z</time></trkpt><trkpt lat="45.37546035551484" lon="10.532845706137975"><ele>127.0</ele><time>2026-04-02T15:40:18.987Z</time></trkpt><trkpt lat="45.37544757939731" lon="10.532941985256647"><ele>127.71428571428572</ele><time>2026-04-02T15:40:26.987Z</time></trkpt><trkpt lat="45.375444699707494" lon="10.533035888041907"><ele>128.42857142857142</ele><time>2026-04-02T15:40:36.987Z</time></trkpt><trkpt lat="45.37543684159104" lon="10.533128385421792"><ele>129.14285714285714</ele><time>2026-04-02T15:40:39.987Z</time></trkpt><trkpt lat="45.37542868209392" lon="10.533255779356287"><ele>129.85714285714286</ele><time>2026-04-02T15:40:43.987Z</time></trkpt><trkpt lat="45.3754319925207" lon="10.53336131751022"><ele>130.57142857142858</ele><time>2026-04-02T15:40:46.986Z</time></trkpt><trkpt lat="45.37541631192847" lon="10.533456418562965"><ele>131.28571428571428</ele><time>2026-04-02T15:40:50.986Z</time></trkpt><trkpt lat="45.37542145714618" lon="10.533548976699775"><ele>132.0</ele><time>2026-04-02T15:40:54.986Z</time></trkpt><trkpt lat="45.37542210021051" lon="10.533663149245537"><ele>132.42857142857142</ele><time>2026-04-02T15:40:57.986Z</time></trkpt><trkpt lat="45.3754232699078" lon="10.533764860369029"><ele>132.85714285714286</ele><time>2026-04-02T15:41:02.986Z</time></trkpt><trkpt lat="45.37540709440757" lon="10.533863863943784"><ele>133.28571428571428</ele><time>2026-04-02T15:41:05.986Z</time></trkpt><trkpt lat="45.37539722822567" lon="10.533966393646148"><ele>133.71428571428572</ele><time>2026-04-02T15:41:08.986Z</time></trkpt><trkpt lat="45.3753912996571" lon="10.534066262479696"><ele>134.14285714285714</ele><time>2026-04-02T15:41:11.986Z</time></trkpt><trkpt lat="45.37534633411664" lon="10.53413627705754"><ele>134.57142857142856</ele><time>2026-04-02T15:41:14.986Z</time></trkpt><trkpt lat="45.37527039091833" lon="10.534184329044935"><ele>135.0</ele><time>2026-04-02T15:41:18.986Z</time></trkpt><trkpt lat="45.375197551778925" lon="10.534199470287275"><ele>135.0</ele><time>2026-04-02T15:41:22.986Z</time></trkpt><trkpt lat="45.37512926323037" lon="10.534211275478023"><ele>135.0</ele><time>2026-04-02T15:41:25.986Z</time></trkpt><trkpt lat="45.37504915150801" lon="10.53422300784836"><ele>135.0</ele><time>2026-04-02T15:41:28.985Z</time></trkpt><trkpt lat="45.3749846447348" lon="10.534217941495287"><ele>135.0</ele><time>2026-04-02T15:41:31.985Z</time></trkpt><trkpt lat="45.37491160058664" lon="10.534188892563918"><ele>135.0</ele><time>2026-04-02T15:41:34.985Z</time></trkpt><trkpt lat="45.37483843326459" lon="10.53418792897878"><ele>135.0</ele><time>2026-04-02T15:41:37.985Z</time></trkpt><trkpt lat="45.3747667391986" lon="10.53419713239139"><ele>135.0</ele><time>2026-04-02T15:41:40.985Z</time></trkpt><trkpt lat="45.374703758548044" lon="10.534234448747574"><ele>136.33333333333334</ele><time>2026-04-02T15:41:43.985Z</time></trkpt><trkpt lat="45.37460540845502" lon="10.534281852753024"><ele>137.66666666666666</ele><time>2026-04-02T15:42:02.985Z</time></trkpt><trkpt lat="45.37458482222437" lon="10.534372237430928"><ele>139.0</ele><time>2026-04-02T15:42:06.985Z</time></trkpt><trkpt lat="45.3745741571684" lon="10.534468360199611"><ele>140.33333333333331</ele><time>2026-04-02T15:42:11.984Z</time></trkpt><trkpt lat="45.37456012076075" lon="10.534560654650464"><ele>141.66666666666666</ele><time>2026-04-02T15:42:14.984Z</time></trkpt><trkpt lat="45.37454419713932" lon="10.534650413710363"><ele>143.0</ele><time>2026-04-02T15:42:18.984Z</time></trkpt><trkpt lat="45.37453020771534" lon="10.534761632734043"><ele>143.0</ele><time>2026-04-02T15:42:23.984Z</time></trkpt><trkpt lat="45.374519956367976" lon="10.53487882910246"><ele>143.0</ele><time>2026-04-02T15:42:26.984Z</time></trkpt><trkpt lat="45.374493355792495" lon="10.535005683651391"><ele>143.0</ele><time>2026-04-02T15:42:29.984Z</time></trkpt><trkpt lat="45.37446830972776" lon="10.535113895904157"><ele>143.0</ele><time>2026-04-02T15:42:32.984Z</time></trkpt><trkpt lat="45.374452803005475" lon="10.535222585648404"><ele>143.0</ele><time>2026-04-02T15:42:35.984Z</time></trkpt><trkpt lat="45.37445695629975" lon="10.535347692200325"><ele>143.0</ele><time>2026-04-02T15:42:38.984Z</time></trkpt><trkpt lat="45.374456416509396" lon="10.53547179833074"><ele>143.0</ele><time>2026-04-02T15:42:41.984Z</time></trkpt><trkpt lat="45.37444809414693" lon="10.535563896627627"><ele>143.0</ele><time>2026-04-02T15:42:43.984Z</time></trkpt><trkpt lat="45.3744484427807" lon="10.535690203888308"><ele>143.0</ele><time>2026-04-02T15:42:46.984Z</time></trkpt><trkpt lat="45.374447170783576" lon="10.535807502103317"><ele>143.0</ele><time>2026-04-02T15:42:49.983Z</time></trkpt><trkpt lat="45.37442890890182" lon="10.535920304936978"><ele>143.0</ele><time>2026-04-02T15:42:52.983Z</time></trkpt><trkpt lat="45.37441668912492" lon="10.536016894056166"><ele>143.0</ele><time>2026-04-02T15:42:55.983Z</time></trkpt><trkpt lat="45.37438523108018" lon="10.536131099757812"><ele>141.5</ele><time>2026-04-02T15:42:58.983Z</time></trkpt><trkpt lat="45.37435480277848" lon="10.536251069937272"><ele>140.0</ele><time>2026-04-02T15:43:01.983Z</time></trkpt><trkpt lat="45.37433741623848" lon="10.536364836066346"><ele>138.5</ele><time>2026-04-02T15:43:04.983Z</time></trkpt><trkpt lat="45.374337880383834" lon="10.536496528347206"><ele>137.0</ele><time>2026-04-02T15:43:07.983Z</time></trkpt><trkpt lat="45.37431845621019" lon="10.536629091557424"><ele>135.5</ele><time>2026-04-02T15:43:10.983Z</time></trkpt><trkpt lat="45.3743222654972" lon="10.53673285639199"><ele>134.0</ele><time>2026-04-02T15:43:12.983Z</time></trkpt><trkpt lat="45.37431461036231" lon="10.53685667172531"><ele>134.0</ele><time>2026-04-02T15:43:15.983Z</time></trkpt><trkpt lat="45.374310003771164" lon="10.536947923763966"><ele>134.0</ele><time>2026-04-02T15:43:17.983Z</time></trkpt><trkpt lat="45.374303934675986" lon="10.537054664875338"><ele>134.0</ele><time>2026-04-02T15:43:19.983Z</time></trkpt><trkpt lat="45.37430445596918" lon="10.53714709955079"><ele>134.0</ele><time>2026-04-02T15:43:21.983Z</time></trkpt><trkpt lat="45.37430376620973" lon="10.537272790345288"><ele>134.0</ele><time>2026-04-02T15:43:23.983Z</time></trkpt><trkpt lat="45.37429941199217" lon="10.537392324263276"><ele>134.0</ele><time>2026-04-02T15:43:25.983Z</time></trkpt><trkpt lat="45.374300798818" lon="10.537490181768828"><ele>134.0</ele><time>2026-04-02T15:43:27.983Z</time></trkpt><trkpt lat="45.37428787768467" lon="10.537621359322072"><ele>133.16666666666666</ele><time>2026-04-02T15:43:30.982Z</time></trkpt><trkpt lat="45.37428417351497" lon="10.537759721883322"><ele>132.33333333333331</ele><time>2026-04-02T15:43:33.982Z</time></trkpt><trkpt lat="45.37427561933248" lon="10.537853677072343"><ele>131.5</ele><time>2026-04-02T15:43:35.982Z</time></trkpt><trkpt lat="45.374271255554596" lon="10.537946971217462"><ele>130.66666666666666</ele><time>2026-04-02T15:43:37.982Z</time></trkpt><trkpt lat="45.37426047063102" lon="10.538057232421178"><ele>129.83333333333334</ele><time>2026-04-02T15:43:40.982Z</time></trkpt><trkpt lat="45.37426093987616" lon="10.538146928286814"><ele>129.0</ele><time>2026-04-02T15:43:42.982Z</time></trkpt><trkpt lat="45.37423770339778" lon="10.538265635735273"><ele>128.99999999999997</ele><time>2026-04-02T15:43:45.982Z</time></trkpt><trkpt lat="45.37421596267541" lon="10.538349816267491"><ele>129.0</ele><time>2026-04-02T15:43:47.982Z</time></trkpt><trkpt lat="45.37420192633306" lon="10.538449817120496"><ele>129.0</ele><time>2026-04-02T15:43:49.982Z</time></trkpt><trkpt lat="45.37417253966035" lon="10.538535468134421"><ele>129.0</ele><time>2026-04-02T15:43:51.982Z</time></trkpt><trkpt lat="45.37416171578342" lon="10.538633506144171"><ele>129.0</ele><time>2026-04-02T15:43:53.982Z</time></trkpt><trkpt lat="45.374139887981705" lon="10.538742041638903"><ele>128.99999999999997</ele><time>2026-04-02T15:43:56.982Z</time></trkpt><trkpt lat="45.374103873879044" lon="10.538857008534317"><ele>129.0</ele><time>2026-04-02T15:43:59.982Z</time></trkpt><trkpt lat="45.37408924999684" lon="10.538955458879508"><ele>129.5</ele><time>2026-04-02T15:44:02.982Z</time></trkpt><trkpt lat="45.374082008277" lon="10.539087334853061"><ele>130.0</ele><time>2026-04-02T15:44:05.982Z</time></trkpt><trkpt lat="45.37405729807377" lon="10.539197875791992"><ele>130.5</ele><time>2026-04-02T15:44:08.982Z</time></trkpt><trkpt lat="45.374045803550416" lon="10.539323012739278"><ele>131.0</ele><time>2026-04-02T15:44:11.981Z</time></trkpt><trkpt lat="45.374031786745995" lon="10.539446182708657"><ele>131.5</ele><time>2026-04-02T15:44:14.981Z</time></trkpt><trkpt lat="45.37401401624967" lon="10.539534146379626"><ele>132.0</ele><time>2026-04-02T15:44:16.981Z</time></trkpt><trkpt lat="45.373995817269666" lon="10.53962577319409"><ele>131.71428571428572</ele><time>2026-04-02T15:44:19.981Z</time></trkpt><trkpt lat="45.37395450482205" lon="10.539705343056104"><ele>131.42857142857144</ele><time>2026-04-02T15:44:23.981Z</time></trkpt><trkpt lat="45.37390995105145" lon="10.539787583711753"><ele>131.14285714285717</ele><time>2026-04-02T15:44:27.981Z</time></trkpt><trkpt lat="45.37384674338844" lon="10.539832290313699"><ele>130.85714285714286</ele><time>2026-04-02T15:44:34.981Z</time></trkpt><trkpt lat="45.37378862604768" lon="10.539900207567761"><ele>130.57142857142858</ele><time>2026-04-02T15:44:43.981Z</time></trkpt><trkpt lat="45.37372999925479" lon="10.539977338715024"><ele>130.2857142857143</ele><time>2026-04-02T15:44:47.981Z</time></trkpt><trkpt lat="45.37367935568689" lon="10.540049124357711"><ele>130.0</ele><time>2026-04-02T15:44:50.981Z</time></trkpt><trkpt lat="45.37362082989039" lon="10.540150719131399"><ele>130.0</ele><time>2026-04-02T15:44:53.98Z</time></trkpt><trkpt lat="45.37357665434501" lon="10.54025485908667"><ele>130.0</ele><time>2026-04-02T15:44:56.98Z</time></trkpt><trkpt lat="45.37354905258343" lon="10.540381306455114"><ele>130.0</ele><time>2026-04-02T15:44:59.98Z</time></trkpt><trkpt lat="45.37353376353462" lon="10.540472407738347"><ele>130.0</ele><time>2026-04-02T15:45:02.98Z</time></trkpt><trkpt lat="45.37351874431023" lon="10.540560151955672"><ele>130.0</ele><time>2026-04-02T15:45:18.98Z</time></trkpt><trkpt lat="45.37351287559161" lon="10.540672975790196"><ele>130.0</ele><time>2026-04-02T15:45:21.98Z</time></trkpt><trkpt lat="45.373508239672255" lon="10.54076926302822"><ele>130.83333333333334</ele><time>2026-04-02T15:45:25.98Z</time></trkpt><trkpt lat="45.37351402599353" lon="10.54086845371826"><ele>131.66666666666669</ele><time>2026-04-02T15:45:31.98Z</time></trkpt><trkpt lat="45.373496484797535" lon="10.540999087370132"><ele>132.5</ele><time>2026-04-02T15:45:35.979Z</time></trkpt><trkpt lat="45.37350037822996" lon="10.541102576405033"><ele>133.33333333333334</ele><time>2026-04-02T15:45:38.979Z</time></trkpt><trkpt lat="45.37350630469425" lon="10.54121599790961"><ele>134.16666666666666</ele><time>2026-04-02T15:45:41.979Z</time></trkpt><trkpt lat="45.3735064796201" lon="10.541321611098713"><ele>135.0</ele><time>2026-04-02T15:45:44.979Z</time></trkpt><trkpt lat="45.37352263870463" lon="10.541449833596028"><ele>134.83333333333334</ele><time>2026-04-02T15:45:47.979Z</time></trkpt><trkpt lat="45.373542970076656" lon="10.54156780805888"><ele>134.66666666666666</ele><time>2026-04-02T15:45:50.979Z</time></trkpt><trkpt lat="45.37356661429583" lon="10.54169153673158"><ele>134.5</ele><time>2026-04-02T15:45:53.979Z</time></trkpt><trkpt lat="45.37357385952358" lon="10.541796194881417"><ele>134.33333333333331</ele><time>2026-04-02T15:45:56.979Z</time></trkpt><trkpt lat="45.3735856923619" lon="10.54191012334536"><ele>134.16666666666666</ele><time>2026-04-02T15:45:59.979Z</time></trkpt><trkpt lat="45.373606421172475" lon="10.542036735468793"><ele>134.0</ele><time>2026-04-02T15:46:02.979Z</time></trkpt><trkpt lat="45.37362629258629" lon="10.542171014155029"><ele>134.0</ele><time>2026-04-02T15:46:05.979Z</time></trkpt><trkpt lat="45.373655327780355" lon="10.54228079218351"><ele>134.0</ele><time>2026-04-02T15:46:07.979Z</time></trkpt><trkpt lat="45.37366811784202" lon="10.542371465363356"><ele>134.0</ele><time>2026-04-02T15:46:09.979Z</time></trkpt><trkpt lat="45.37367635653056" lon="10.54247906746142"><ele>134.0</ele><time>2026-04-02T15:46:12.979Z</time></trkpt><trkpt lat="45.373679670876186" lon="10.54258679456779"><ele>134.0</ele><time>2026-04-02T15:46:15.978Z</time></trkpt><trkpt lat="45.37363650703197" lon="10.542666350483211"><ele>134.0</ele><time>2026-04-02T15:46:18.978Z</time></trkpt><trkpt lat="45.37358374356399" lon="10.542717128646064"><ele>134.0</ele><time>2026-04-02T15:46:21.978Z</time></trkpt><trkpt lat="45.37352081167362" lon="10.542674967601526"><ele>134.0</ele><time>2026-04-02T15:46:28.978Z</time></trkpt><trkpt lat="45.37346612089975" lon="10.542630534204367"><ele>134.0</ele><time>2026-04-02T15:46:31.978Z</time></trkpt><trkpt lat="45.373393311494056" lon="10.54260728894132"><ele>134.0</ele><time>2026-04-02T15:46:34.978Z</time></trkpt><trkpt lat="45.3733112594076" lon="10.542574697065156"><ele>134.0</ele><time>2026-04-02T15:46:37.978Z</time></trkpt><trkpt lat="45.373220726060275" lon="10.542555092362031"><ele>134.0</ele><time>2026-04-02T15:46:40.978Z</time></trkpt><trkpt lat="45.37314449386968" lon="10.542531784611723"><ele>134.0</ele><time>2026-04-02T15:46:43.978Z</time></trkpt><trkpt lat="45.373069847424105" lon="10.542517935754882"><ele>133.42857142857144</ele><time>2026-04-02T15:46:45.978Z</time></trkpt><trkpt lat="45.37299415135981" lon="10.542510529229759"><ele>132.85714285714286</ele><time>2026-04-02T15:46:47.978Z</time></trkpt><trkpt lat="45.3729043318374" lon="10.542482412674671"><ele>132.28571428571428</ele><time>2026-04-02T15:46:50.978Z</time></trkpt><trkpt lat="45.372832815590975" lon="10.542472971056599"><ele>131.71428571428572</ele><time>2026-04-02T15:46:52.978Z</time></trkpt><trkpt lat="45.37276132520719" lon="10.542465317657017"><ele>131.14285714285714</ele><time>2026-04-02T15:46:54.978Z</time></trkpt><trkpt lat="45.372693900433404" lon="10.542458136045651"><ele>130.57142857142858</ele><time>2026-04-02T15:46:56.977Z</time></trkpt><trkpt lat="45.372629264027644" lon="10.542449707760332"><ele>130.0</ele><time>2026-04-02T15:46:58.977Z</time></trkpt><trkpt lat="45.37255709747445" lon="10.542451100098527"><ele>130.00000000000003</ele><time>2026-04-02T15:47:00.977Z</time></trkpt><trkpt lat="45.372493082227265" lon="10.542441777318253"><ele>130.0</ele><time>2026-04-02T15:47:02.977Z</time></trkpt><trkpt lat="45.37242111312749" lon="10.542432567934668"><ele>130.0</ele><time>2026-04-02T15:47:04.977Z</time></trkpt><trkpt lat="45.37235156174906" lon="10.542443778053919"><ele>130.0</ele><time>2026-04-02T15:47:06.977Z</time></trkpt><trkpt lat="45.37228489292752" lon="10.542461390330375"><ele>130.0</ele><time>2026-04-02T15:47:08.977Z</time></trkpt><trkpt lat="45.37222391374801" lon="10.542513600765796"><ele>130.00000000000003</ele><time>2026-04-02T15:47:10.977Z</time></trkpt><trkpt lat="45.372173081681915" lon="10.542588628235473"><ele>130.0</ele><time>2026-04-02T15:47:12.977Z</time></trkpt><trkpt lat="45.37211664245886" lon="10.542637011739949"><ele>129.5</ele><time>2026-04-02T15:47:14.977Z</time></trkpt><trkpt lat="45.37205392054752" lon="10.542666888698248"><ele>129.0</ele><time>2026-04-02T15:47:16.977Z</time></trkpt><trkpt lat="45.37198765152331" lon="10.542665428863243"><ele>128.5</ele><time>2026-04-02T15:47:18.977Z</time></trkpt><trkpt lat="45.3718934522412" lon="10.542634816858751"><ele>128.0</ele><time>2026-04-02T15:47:21.977Z</time></trkpt><trkpt lat="45.371799823243805" lon="10.54260103739592"><ele>127.50000000000001</ele><time>2026-04-02T15:47:24.977Z</time></trkpt><trkpt lat="45.37173504672377" lon="10.542577717543024"><ele>127.0</ele><time>2026-04-02T15:47:26.977Z</time></trkpt><trkpt lat="45.37165738626016" lon="10.542552702412872"><ele>127.00000000000001</ele><time>2026-04-02T15:47:29.977Z</time></trkpt><trkpt lat="45.37156801409414" lon="10.542515295725073"><ele>127.0</ele><time>2026-04-02T15:47:32.976Z</time></trkpt><trkpt lat="45.37150349554659" lon="10.542515505983994"><ele>127.0</ele><time>2026-04-02T15:47:34.976Z</time></trkpt><trkpt lat="45.37142433961327" lon="10.542561463176735"><ele>127.0</ele><time>2026-04-02T15:47:37.976Z</time></trkpt><trkpt lat="45.37137726844347" lon="10.542661894866413"><ele>127.00000000000001</ele><time>2026-04-02T15:47:40.976Z</time></trkpt><trkpt lat="45.371357462745344" lon="10.542747228677927"><ele>127.0</ele><time>2026-04-02T15:47:43.976Z</time></trkpt><trkpt lat="45.371334748379184" lon="10.54284769517585"><ele>128.0</ele><time>2026-04-02T15:47:46.976Z</time></trkpt><trkpt lat="45.37131333173486" lon="10.54296550670995"><ele>129.0</ele><time>2026-04-02T15:47:49.976Z</time></trkpt><trkpt lat="45.3712897090367" lon="10.543062111699957"><ele>130.0</ele><time>2026-04-02T15:47:52.976Z</time></trkpt><trkpt lat="45.37127391101471" lon="10.54317443098029"><ele>131.0</ele><time>2026-04-02T15:47:55.976Z</time></trkpt><trkpt lat="45.3712514551257" lon="10.543288542536645"><ele>132.0</ele><time>2026-04-02T15:47:58.976Z</time></trkpt><trkpt lat="45.371246626685995" lon="10.54338014773962"><ele>133.0</ele><time>2026-04-02T15:48:00.976Z</time></trkpt><trkpt lat="45.37123250132767" lon="10.543510217520318"><ele>133.0</ele><time>2026-04-02T15:48:03.976Z</time></trkpt><trkpt lat="45.37120205463677" lon="10.543625297786898"><ele>133.0</ele><time>2026-04-02T15:48:06.976Z</time></trkpt><trkpt lat="45.371163780453365" lon="10.543740194698378"><ele>133.0</ele><time>2026-04-02T15:48:09.976Z</time></trkpt><trkpt lat="45.37112567621184" lon="10.54383227853727"><ele>133.0</ele><time>2026-04-02T15:48:12.975Z</time></trkpt><trkpt lat="45.37106247789918" lon="10.543920111689175"><ele>133.0</ele><time>2026-04-02T15:48:15.975Z</time></trkpt><trkpt lat="45.3710027299152" lon="10.544009456537847"><ele>133.0</ele><time>2026-04-02T15:48:18.975Z</time></trkpt><trkpt lat="45.370941534007166" lon="10.544065149013361"><ele>132.16666666666669</ele><time>2026-04-02T15:48:20.975Z</time></trkpt><trkpt lat="45.37087106514569" lon="10.544134572085385"><ele>131.33333333333334</ele><time>2026-04-02T15:48:23.975Z</time></trkpt><trkpt lat="45.370807192189524" lon="10.544219752048395"><ele>130.5</ele><time>2026-04-02T15:48:26.975Z</time></trkpt><trkpt lat="45.37076139484645" lon="10.544285570460383"><ele>129.66666666666666</ele><time>2026-04-02T15:48:28.975Z</time></trkpt><trkpt lat="45.37071484000252" lon="10.54439780559164"><ele>128.83333333333331</ele><time>2026-04-02T15:48:31.975Z</time></trkpt><trkpt lat="45.370661250934525" lon="10.544476936172837"><ele>128.0</ele><time>2026-04-02T15:48:34.975Z</time></trkpt><trkpt lat="45.37063116472355" lon="10.544558470822883"><ele>127.83333333333333</ele><time>2026-04-02T15:48:36.975Z</time></trkpt><trkpt lat="45.37058159530626" lon="10.544649371410546"><ele>127.66666666666666</ele><time>2026-04-02T15:48:39.975Z</time></trkpt><trkpt lat="45.37055748756645" lon="10.544782788019443"><ele>127.5</ele><time>2026-04-02T15:48:42.975Z</time></trkpt><trkpt lat="45.37051110539608" lon="10.544890207244029"><ele>127.33333333333334</ele><time>2026-04-02T15:48:45.975Z</time></trkpt><trkpt lat="45.370489875232806" lon="10.545034321390023"><ele>127.16666666666667</ele><time>2026-04-02T15:48:48.975Z</time></trkpt><trkpt lat="45.37045945569471" lon="10.545114949350248"><ele>127.0</ele><time>2026-04-02T15:48:50.975Z</time></trkpt><trkpt lat="45.3704140341396" lon="10.545232491505843"><ele>127.00000000000001</ele><time>2026-04-02T15:48:53.974Z</time></trkpt><trkpt lat="45.37037606384717" lon="10.545332628477619"><ele>127.0</ele><time>2026-04-02T15:48:55.974Z</time></trkpt><trkpt lat="45.370350374257086" lon="10.545426735683915"><ele>127.0</ele><time>2026-04-02T15:48:57.974Z</time></trkpt><trkpt lat="45.370321340086996" lon="10.54553041240613"><ele>127.0</ele><time>2026-04-02T15:48:59.974Z</time></trkpt><trkpt lat="45.37027575544053" lon="10.545649640392503"><ele>127.00000000000001</ele><time>2026-04-02T15:49:01.974Z</time></trkpt><trkpt lat="45.37020991588814" lon="10.545740687956757"><ele>127.0</ele><time>2026-04-02T15:49:03.974Z</time></trkpt><trkpt lat="45.37014881002181" lon="10.545805223164102"><ele>125.50000000000001</ele><time>2026-04-02T15:49:05.974Z</time></trkpt><trkpt lat="45.37009623112444" lon="10.545857726334345"><ele>124.0</ele><time>2026-04-02T15:49:07.974Z</time></trkpt><trkpt lat="45.370054539132084" lon="10.545928385932715"><ele>122.5</ele><time>2026-04-02T15:49:09.974Z</time></trkpt><trkpt lat="45.37001025561933" lon="10.546028621373612"><ele>121.0</ele><time>2026-04-02T15:49:12.974Z</time></trkpt><trkpt lat="45.369975981831566" lon="10.546115187538984"><ele>119.50000000000001</ele><time>2026-04-02T15:49:14.974Z</time></trkpt><trkpt lat="45.369917911184885" lon="10.546182085010898"><ele>118.0</ele><time>2026-04-02T15:49:16.974Z</time></trkpt><trkpt lat="45.36987035357149" lon="10.546322933668183"><ele>117.57142857142857</ele><time>2026-04-02T15:49:19.974Z</time></trkpt><trkpt lat="45.36984011017815" lon="10.546414680837069"><ele>117.14285714285714</ele><time>2026-04-02T15:49:21.974Z</time></trkpt><trkpt lat="45.369809757600436" lon="10.546505073866664"><ele>116.71428571428571</ele><time>2026-04-02T15:49:23.974Z</time></trkpt><trkpt lat="45.3697652034531" lon="10.546590163575674"><ele>116.28571428571428</ele><time>2026-04-02T15:49:25.974Z</time></trkpt><trkpt lat="45.36970950009428" lon="10.546652113098434"><ele>115.85714285714286</ele><time>2026-04-02T15:49:27.974Z</time></trkpt><trkpt lat="45.36964711867624" lon="10.546710274041278"><ele>115.42857142857142</ele><time>2026-04-02T15:49:29.974Z</time></trkpt><trkpt lat="45.369578779214876" lon="10.5467669244348"><ele>114.99999999999999</ele><time>2026-04-02T15:49:31.974Z</time></trkpt><trkpt lat="45.36951554683883" lon="10.546805055532602"><ele>114.66666666666667</ele><time>2026-04-02T15:49:33.974Z</time></trkpt><trkpt lat="45.36944512412159" lon="10.546812915351039"><ele>114.33333333333334</ele><time>2026-04-02T15:49:35.973Z</time></trkpt><trkpt lat="45.36937851962011" lon="10.546809932121235"><ele>114.0</ele><time>2026-04-02T15:49:37.973Z</time></trkpt><trkpt lat="45.36928696849123" lon="10.546817942177071"><ele>113.66666666666666</ele><time>2026-04-02T15:49:40.973Z</time></trkpt><trkpt lat="45.369216732011445" lon="10.546809027561697"><ele>113.33333333333333</ele><time>2026-04-02T15:49:42.973Z</time></trkpt><trkpt lat="45.36915121934458" lon="10.54679156965859"><ele>113.0</ele><time>2026-04-02T15:49:44.973Z</time></trkpt><trkpt lat="45.369064700476684" lon="10.546750607029251"><ele>113.0</ele><time>2026-04-02T15:49:47.973Z</time></trkpt><trkpt lat="45.368991249826614" lon="10.546797549580445"><ele>113.0</ele><time>2026-04-02T15:49:50.973Z</time></trkpt><trkpt lat="45.36898356963518" lon="10.54689078965989"><ele>113.0</ele><time>2026-04-02T15:49:53.973Z</time></trkpt><trkpt lat="45.36894962157155" lon="10.546991224119923"><ele>113.0</ele><time>2026-04-02T15:49:56.973Z</time></trkpt><trkpt lat="45.36893111299668" lon="10.5471112085111"><ele>113.0</ele><time>2026-04-02T15:49:59.973Z</time></trkpt><trkpt lat="45.368919766866526" lon="10.547202330076068"><ele>113.0</ele><time>2026-04-02T15:50:01.973Z</time></trkpt><trkpt lat="45.368912217170625" lon="10.547292742343746"><ele>113.0</ele><time>2026-04-02T15:50:03.973Z</time></trkpt><trkpt lat="45.36890301087795" lon="10.547432567906824"><ele>113.16666666666666</ele><time>2026-04-02T15:50:06.973Z</time></trkpt><trkpt lat="45.36889330913208" lon="10.54754633909631"><ele>113.33333333333333</ele><time>2026-04-02T15:50:09.973Z</time></trkpt><trkpt lat="45.36888711356377" lon="10.547661207135201"><ele>113.5</ele><time>2026-04-02T15:50:12.973Z</time></trkpt><trkpt lat="45.36886115876957" lon="10.547773116454565"><ele>113.66666666666666</ele><time>2026-04-02T15:50:15.973Z</time></trkpt><trkpt lat="45.3688654073222" lon="10.547878200029078"><ele>113.83333333333333</ele><time>2026-04-02T15:50:18.972Z</time></trkpt><trkpt lat="45.36892403492257" lon="10.547960916669442"><ele>114.0</ele><time>2026-04-02T15:50:21.972Z</time></trkpt><trkpt lat="45.36897765627799" lon="10.548013743827285"><ele>115.33333333333333</ele><time>2026-04-02T15:50:29.972Z</time></trkpt><trkpt lat="45.36904613380459" lon="10.547984322671436"><ele>116.66666666666666</ele><time>2026-04-02T15:50:34.972Z</time></trkpt><trkpt lat="45.3691127986519" lon="10.547949652284087"><ele>118.0</ele><time>2026-04-02T15:50:37.972Z</time></trkpt><trkpt lat="45.369191179494095" lon="10.54792258487687"><ele>119.33333333333333</ele><time>2026-04-02T15:50:40.972Z</time></trkpt><trkpt lat="45.36925804346759" lon="10.54790712254734"><ele>120.66666666666666</ele><time>2026-04-02T15:50:43.972Z</time></trkpt><trkpt lat="45.36933880676924" lon="10.547900305000766"><ele>122.0</ele><time>2026-04-02T15:50:46.972Z</time></trkpt><trkpt lat="45.36942593888869" lon="10.54789313479067"><ele>122.0</ele><time>2026-04-02T15:50:49.972Z</time></trkpt><trkpt lat="45.3695156529515" lon="10.547887110629695"><ele>121.99999999999999</ele><time>2026-04-02T15:50:52.972Z</time></trkpt><trkpt lat="45.369607830595776" lon="10.547876572848242"><ele>121.99999999999999</ele><time>2026-04-02T15:50:55.972Z</time></trkpt><trkpt lat="45.3697027136302" lon="10.547868392717689"><ele>122.0</ele><time>2026-04-02T15:50:58.971Z</time></trkpt><trkpt lat="45.36976689184337" lon="10.547870210046668"><ele>122.0</ele><time>2026-04-02T15:51:00.971Z</time></trkpt><trkpt lat="45.369946910007116" lon="10.54788395260249"><ele>122.57142857142856</ele><time>2026-04-02T15:51:05.971Z</time></trkpt><trkpt lat="45.37001407244928" lon="10.547911057021018"><ele>123.14285714285714</ele><time>2026-04-02T15:51:07.971Z</time></trkpt><trkpt lat="45.37008752275603" lon="10.547936908859032"><ele>123.71428571428571</ele><time>2026-04-02T15:51:09.971Z</time></trkpt><trkpt lat="45.37015137170305" lon="10.547964417861486"><ele>124.28571428571428</ele><time>2026-04-02T15:51:11.971Z</time></trkpt><trkpt lat="45.37021749188234" lon="10.547997972130478"><ele>124.85714285714286</ele><time>2026-04-02T15:51:13.971Z</time></trkpt><trkpt lat="45.37028029447634" lon="10.548018138895438"><ele>125.42857142857143</ele><time>2026-04-02T15:51:15.971Z</time></trkpt><trkpt lat="45.37037356348592" lon="10.54804209850368"><ele>126.0</ele><time>2026-04-02T15:51:18.971Z</time></trkpt><trkpt lat="45.37046218239576" lon="10.548068733313308"><ele>126.25</ele><time>2026-04-02T15:51:21.971Z</time></trkpt><trkpt lat="45.37055259482393" lon="10.548086705186616"><ele>126.5</ele><time>2026-04-02T15:51:24.971Z</time></trkpt><trkpt lat="45.37061740398901" lon="10.548096425527877"><ele>126.75</ele><time>2026-04-02T15:51:27.971Z</time></trkpt><trkpt lat="45.370705027125304" lon="10.548086449474683"><ele>127.0</ele><time>2026-04-02T15:51:30.971Z</time></trkpt><trkpt lat="45.37093738336412" lon="10.548138111243194"><ele>127.00000000000001</ele><time>2026-04-02T15:51:40.97Z</time></trkpt><trkpt lat="45.371009348422874" lon="10.548142050561216"><ele>127.0</ele><time>2026-04-02T15:51:43.969Z</time></trkpt><trkpt lat="45.371084250408586" lon="10.548121645853161"><ele>127.0</ele><time>2026-04-02T15:51:46.969Z</time></trkpt><trkpt lat="45.37116251116396" lon="10.548115254782749"><ele>127.0</ele><time>2026-04-02T15:51:49.969Z</time></trkpt><trkpt lat="45.37124132674826" lon="10.54812715892573"><ele>127.00000000000001</ele><time>2026-04-02T15:51:52.969Z</time></trkpt><trkpt lat="45.37131979096368" lon="10.54813061786854"><ele>127.0</ele><time>2026-04-02T15:51:55.968Z</time></trkpt><trkpt lat="45.37138506501511" lon="10.548137163633735"><ele>127.16666666666667</ele><time>2026-04-02T15:51:57.968Z</time></trkpt><trkpt lat="45.37146208206418" lon="10.548143093382887"><ele>127.33333333333334</ele><time>2026-04-02T15:52:00.968Z</time></trkpt><trkpt lat="45.37154622026927" lon="10.54813157255054"><ele>127.5</ele><time>2026-04-02T15:52:03.968Z</time></trkpt><trkpt lat="45.37162027408629" lon="10.5481252829269"><ele>127.66666666666666</ele><time>2026-04-02T15:52:06.968Z</time></trkpt><trkpt lat="45.37170456996207" lon="10.548117252397242"><ele>127.83333333333333</ele><time>2026-04-02T15:52:10.968Z</time></trkpt><trkpt lat="45.371778627186615" lon="10.5481248542224"><ele>128.0</ele><time>2026-04-02T15:52:13.968Z</time></trkpt><trkpt lat="45.371855620039" lon="10.548127732912493"><ele>127.99999999999999</ele><time>2026-04-02T15:52:16.968Z</time></trkpt><trkpt lat="45.371920761158556" lon="10.548109398133686"><ele>128.0</ele><time>2026-04-02T15:52:19.968Z</time></trkpt><trkpt lat="45.371994329718746" lon="10.548104071629103"><ele>128.0</ele><time>2026-04-02T15:52:22.968Z</time></trkpt><trkpt lat="45.372071147241954" lon="10.548127935573373"><ele>128.0</ele><time>2026-04-02T15:52:25.968Z</time></trkpt><trkpt lat="45.37213871213571" lon="10.548192361889411"><ele>127.99999999999999</ele><time>2026-04-02T15:52:28.968Z</time></trkpt><trkpt lat="45.372188412837346" lon="10.548272352284568"><ele>128.0</ele><time>2026-04-02T15:52:31.968Z</time></trkpt><trkpt lat="45.37223730929676" lon="10.548357736493731"><ele>128.85714285714286</ele><time>2026-04-02T15:52:34.968Z</time></trkpt><trkpt lat="45.37228905976266" lon="10.548421291012142"><ele>129.7142857142857</ele><time>2026-04-02T15:52:37.967Z</time></trkpt><trkpt lat="45.372344725696614" lon="10.548485914612725"><ele>130.57142857142856</ele><time>2026-04-02T15:52:40.967Z</time></trkpt><trkpt lat="45.37240756407547" lon="10.548562293127468"><ele>131.42857142857142</ele><time>2026-04-02T15:52:46.967Z</time></trkpt><trkpt lat="45.372449654699146" lon="10.548642856947662"><ele>132.28571428571428</ele><time>2026-04-02T15:52:52.967Z</time></trkpt><trkpt lat="45.37247293225778" lon="10.548746519264665"><ele>133.14285714285714</ele><time>2026-04-02T15:52:56.967Z</time></trkpt><trkpt lat="45.37246241666851" lon="10.54883705064814"><ele>134.0</ele><time>2026-04-02T15:52:59.967Z</time></trkpt><trkpt lat="45.3724495186981" lon="10.548947839385844"><ele>135.57142857142858</ele><time>2026-04-02T15:53:03.967Z</time></trkpt><trkpt lat="45.37244323391084" lon="10.549042498015655"><ele>137.14285714285714</ele><time>2026-04-02T15:53:06.967Z</time></trkpt><trkpt lat="45.37244672675955" lon="10.549145263241986"><ele>138.71428571428572</ele><time>2026-04-02T15:53:10.967Z</time></trkpt><trkpt lat="45.372496965540655" lon="10.549210899526901"><ele>140.28571428571428</ele><time>2026-04-02T15:53:13.967Z</time></trkpt><trkpt lat="45.37255697723459" lon="10.549268875366957"><ele>141.85714285714286</ele><time>2026-04-02T15:53:17.967Z</time></trkpt><trkpt lat="45.372622576219364" lon="10.54930346253884"><ele>143.42857142857144</ele><time>2026-04-02T15:53:21.966Z</time></trkpt><trkpt lat="45.37269594595856" lon="10.549311767608051"><ele>145.0</ele><time>2026-04-02T15:53:26.966Z</time></trkpt><trkpt lat="45.37270220098826" lon="10.549408134912337"><ele>145.0</ele><time>2026-04-02T15:53:35.966Z</time></trkpt><trkpt lat="45.37270077672622" lon="10.549510988893362"><ele>145.0</ele><time>2026-04-02T15:53:39.966Z</time></trkpt><trkpt lat="45.37274776952371" lon="10.549582349841105"><ele>145.0</ele><time>2026-04-02T15:53:47.966Z</time></trkpt><trkpt lat="45.37280212865092" lon="10.549515990339902"><ele>145.0</ele><time>2026-04-02T15:53:57.966Z</time></trkpt><trkpt lat="45.37277438468988" lon="10.54942510112481"><ele>145.0</ele><time>2026-04-02T15:54:09.965Z</time></trkpt><trkpt lat="45.372804983664466" lon="10.54932074030216"><ele>145.0</ele><time>2026-04-02T15:54:15.965Z</time></trkpt><trkpt lat="45.372876516299385" lon="10.549257849161918"><ele>145.0</ele><time>2026-04-02T15:54:18.965Z</time></trkpt><trkpt lat="45.37295230832537" lon="10.549208861504233"><ele>145.0</ele><time>2026-04-02T15:54:22.965Z</time></trkpt><trkpt lat="45.37302060122321" lon="10.549159518567238"><ele>145.0</ele><time>2026-04-02T15:54:25.965Z</time></trkpt><trkpt lat="45.3730843212988" lon="10.549118950494913"><ele>145.0</ele><time>2026-04-02T15:54:28.965Z</time></trkpt><trkpt lat="45.37313241653172" lon="10.549055036380258"><ele>145.0</ele><time>2026-04-02T15:54:35.964Z</time></trkpt><trkpt lat="45.37314556365104" lon="10.548965895040954"><ele>145.0</ele><time>2026-04-02T15:54:38.965Z</time></trkpt><trkpt lat="45.37315448956271" lon="10.548864913810277"><ele>145.0</ele><time>2026-04-02T15:54:41.964Z</time></trkpt><trkpt lat="45.37315946178884" lon="10.548762932704289"><ele>145.0</ele><time>2026-04-02T15:54:44.965Z</time></trkpt><trkpt lat="45.37317302156922" lon="10.548649526223313"><ele>145.5</ele><time>2026-04-02T15:54:47.964Z</time></trkpt><trkpt lat="45.37318397034889" lon="10.548543643601368"><ele>146.0</ele><time>2026-04-02T15:54:50.964Z</time></trkpt><trkpt lat="45.37321542110675" lon="10.548424705452398"><ele>146.5</ele><time>2026-04-02T15:54:53.964Z</time></trkpt><trkpt lat="45.37323014597729" lon="10.548293483158504"><ele>147.0</ele><time>2026-04-02T15:54:56.964Z</time></trkpt><trkpt lat="45.37323455038879" lon="10.548200249876734"><ele>147.5</ele><time>2026-04-02T15:54:59.964Z</time></trkpt><trkpt lat="45.3732433102639" lon="10.548090206388265"><ele>148.0</ele><time>2026-04-02T15:55:03.964Z</time></trkpt><trkpt lat="45.37325783641964" lon="10.54799334935473"><ele>148.0</ele><time>2026-04-02T15:55:07.964Z</time></trkpt><trkpt lat="45.37325777250753" lon="10.54788661598968"><ele>148.0</ele><time>2026-04-02T15:55:10.964Z</time></trkpt><trkpt lat="45.373251846519935" lon="10.547773462702876"><ele>148.0</ele><time>2026-04-02T15:55:13.963Z</time></trkpt><trkpt lat="45.37325615652266" lon="10.547658410042994"><ele>148.0</ele><time>2026-04-02T15:55:16.963Z</time></trkpt><trkpt lat="45.373260304799004" lon="10.547544985809335"><ele>148.0</ele><time>2026-04-02T15:55:19.963Z</time></trkpt><trkpt lat="45.373278532005344" lon="10.547431653886537"><ele>148.0</ele><time>2026-04-02T15:55:22.963Z</time></trkpt><trkpt lat="45.37326956027655" lon="10.54731814126262"><ele>146.5</ele><time>2026-04-02T15:55:25.963Z</time></trkpt><trkpt lat="45.373267328813334" lon="10.54720396081749"><ele>145.0</ele><time>2026-04-02T15:55:28.963Z</time></trkpt><trkpt lat="45.37330782141454" lon="10.547118892379268"><ele>143.5</ele><time>2026-04-02T15:55:30.963Z</time></trkpt><trkpt lat="45.37336613301347" lon="10.547019300708588"><ele>142.0</ele><time>2026-04-02T15:55:33.963Z</time></trkpt><trkpt lat="45.37342840520143" lon="10.546915924855616"><ele>140.5</ele><time>2026-04-02T15:55:36.963Z</time></trkpt><trkpt lat="45.37346764578231" lon="10.546819741224196"><ele>139.0</ele><time>2026-04-02T15:55:39.963Z</time></trkpt><trkpt lat="45.373457587910615" lon="10.546726350667814"><ele>137.5</ele><time>2026-04-02T15:55:41.963Z</time></trkpt><trkpt lat="45.373422730606656" lon="10.54663737684954"><ele>136.0</ele><time>2026-04-02T15:55:43.963Z</time></trkpt><trkpt lat="45.37338444120901" lon="10.54651906667928"><ele>134.5</ele><time>2026-04-02T15:55:45.963Z</time></trkpt><trkpt lat="45.37334003323313" lon="10.546451452545993"><ele>133.0</ele><time>2026-04-02T15:55:47.963Z</time></trkpt><trkpt lat="45.37327748682182" lon="10.546380288453992"><ele>131.5</ele><time>2026-04-02T15:55:50.963Z</time></trkpt><trkpt lat="45.37331526921698" lon="10.546276453860964"><ele>130.0</ele><time>2026-04-02T15:55:53.963Z</time></trkpt><trkpt lat="45.373374100096655" lon="10.546182465712135"><ele>129.5</ele><time>2026-04-02T15:55:56.962Z</time></trkpt><trkpt lat="45.37343585195878" lon="10.546097812391542"><ele>129.0</ele><time>2026-04-02T15:55:59.962Z</time></trkpt><trkpt lat="45.3734958985585" lon="10.546029351997637"><ele>128.5</ele><time>2026-04-02T15:56:02.962Z</time></trkpt><trkpt lat="45.37355483454204" lon="10.545947104793518"><ele>128.0</ele><time>2026-04-02T15:56:05.962Z</time></trkpt><trkpt lat="45.37362003156686" lon="10.545876685058149"><ele>127.50000000000001</ele><time>2026-04-02T15:56:08.962Z</time></trkpt><trkpt lat="45.3736970670519" lon="10.54579459255674"><ele>127.0</ele><time>2026-04-02T15:56:11.962Z</time></trkpt><trkpt lat="45.37376435693988" lon="10.545713027033045"><ele>127.00000000000001</ele><time>2026-04-02T15:56:14.962Z</time></trkpt><trkpt lat="45.37382566859713" lon="10.545638031936003"><ele>127.0</ele><time>2026-04-02T15:56:17.962Z</time></trkpt><trkpt lat="45.37384434058333" lon="10.545525581788032"><ele>127.0</ele><time>2026-04-02T15:56:20.962Z</time></trkpt><trkpt lat="45.37382654759824" lon="10.545403911195807"><ele>127.0</ele><time>2026-04-02T15:56:23.962Z</time></trkpt><trkpt lat="45.37383894039209" lon="10.545281897628351"><ele>127.00000000000001</ele><time>2026-04-02T15:56:26.962Z</time></trkpt><trkpt lat="45.37387975973703" lon="10.5451955832232"><ele>127.0</ele><time>2026-04-02T15:56:29.962Z</time></trkpt><trkpt lat="45.37393269369441" lon="10.545131405468522"><ele>128.0</ele><time>2026-04-02T15:56:31.962Z</time></trkpt><trkpt lat="45.37399518335183" lon="10.545050036177967"><ele>129.0</ele><time>2026-04-02T15:56:34.962Z</time></trkpt><trkpt lat="45.37404798591761" lon="10.544965541611393"><ele>130.0</ele><time>2026-04-02T15:56:37.961Z</time></trkpt><trkpt lat="45.37410691634214" lon="10.54487994919006"><ele>131.0</ele><time>2026-04-02T15:56:40.961Z</time></trkpt><trkpt lat="45.374154261382124" lon="10.544792269960077"><ele>132.0</ele><time>2026-04-02T15:56:43.961Z</time></trkpt><trkpt lat="45.37420364689314" lon="10.54470762446218"><ele>133.0</ele><time>2026-04-02T15:56:46.961Z</time></trkpt><trkpt lat="45.374270775980975" lon="10.544639194054005"><ele>133.0</ele><time>2026-04-02T15:56:49.961Z</time></trkpt><trkpt lat="45.374346978181656" lon="10.544572380352479"><ele>133.0</ele><time>2026-04-02T15:56:52.961Z</time></trkpt><trkpt lat="45.374417755340154" lon="10.544498355209114"><ele>133.0</ele><time>2026-04-02T15:56:55.961Z</time></trkpt><trkpt lat="45.37448904565919" lon="10.54443193231332"><ele>133.0</ele><time>2026-04-02T15:56:58.961Z</time></trkpt><trkpt lat="45.3745556279966" lon="10.544365685604598"><ele>133.0</ele><time>2026-04-02T15:57:01.961Z</time></trkpt><trkpt lat="45.37462378355171" lon="10.544294228808987"><ele>133.0</ele><time>2026-04-02T15:57:04.961Z</time></trkpt><trkpt lat="45.37469184176817" lon="10.544222245470886"><ele>132.5</ele><time>2026-04-02T15:57:07.961Z</time></trkpt><trkpt lat="45.37476590665776" lon="10.54416310700862"><ele>132.0</ele><time>2026-04-02T15:57:10.96Z</time></trkpt><trkpt lat="45.37483282731389" lon="10.544092260603781"><ele>131.5</ele><time>2026-04-02T15:57:13.96Z</time></trkpt><trkpt lat="45.37490577039424" lon="10.544059163429806"><ele>131.0</ele><time>2026-04-02T15:57:17.96Z</time></trkpt><trkpt lat="45.374962462141454" lon="10.544001980997768"><ele>130.5</ele><time>2026-04-02T15:57:20.96Z</time></trkpt><trkpt lat="45.375024838937065" lon="10.543942510462195"><ele>130.0</ele><time>2026-04-02T15:57:25.96Z</time></trkpt><trkpt lat="45.37502276446436" lon="10.544039259090864"><ele>130.0</ele><time>2026-04-02T15:57:41.96Z</time></trkpt><trkpt lat="45.37499148545667" lon="10.544138251969926"><ele>130.0</ele><time>2026-04-02T15:57:45.96Z</time></trkpt><trkpt lat="45.37493652082972" lon="10.544230083332042"><ele>130.0</ele><time>2026-04-02T15:57:49.959Z</time></trkpt><trkpt lat="45.37488960800124" lon="10.544314469699781"><ele>130.0</ele><time>2026-04-02T15:57:52.959Z</time></trkpt><trkpt lat="45.37485014511618" lon="10.544394396732017"><ele>130.0</ele><time>2026-04-02T15:57:55.959Z</time></trkpt><trkpt lat="45.37479894586382" lon="10.54449001151142"><ele>130.0</ele><time>2026-04-02T15:57:59.959Z</time></trkpt><trkpt lat="45.374756122224646" lon="10.544562910376062"><ele>130.42857142857144</ele><time>2026-04-02T15:58:02.959Z</time></trkpt><trkpt lat="45.37472179093094" lon="10.544655285416889"><ele>130.85714285714286</ele><time>2026-04-02T15:58:05.959Z</time></trkpt><trkpt lat="45.374680288862066" lon="10.544742279994102"><ele>131.28571428571428</ele><time>2026-04-02T15:58:09.959Z</time></trkpt><trkpt lat="45.374643993494374" lon="10.544831891694622"><ele>131.71428571428572</ele><time>2026-04-02T15:58:12.959Z</time></trkpt><trkpt lat="45.374608533044736" lon="10.54491241736138"><ele>132.14285714285714</ele><time>2026-04-02T15:58:15.959Z</time></trkpt><trkpt lat="45.37456445804245" lon="10.544993857759799"><ele>132.57142857142858</ele><time>2026-04-02T15:58:18.959Z</time></trkpt><trkpt lat="45.374518447503895" lon="10.545082319759544"><ele>133.0</ele><time>2026-04-02T15:58:21.959Z</time></trkpt><trkpt lat="45.37448225470043" lon="10.54518208974423"><ele>133.0</ele><time>2026-04-02T15:58:24.96Z</time></trkpt><trkpt lat="45.37443109833202" lon="10.545254277857953"><ele>133.0</ele><time>2026-04-02T15:58:27.96Z</time></trkpt><trkpt lat="45.37438303389388" lon="10.54533060699155"><ele>133.0</ele><time>2026-04-02T15:58:31.959Z</time></trkpt><trkpt lat="45.374382274978025" lon="10.545431688849046"><ele>133.0</ele><time>2026-04-02T15:58:35.959Z</time></trkpt><trkpt lat="45.374429696082444" lon="10.54552132636398"><ele>133.0</ele><time>2026-04-02T15:58:39.959Z</time></trkpt><trkpt lat="45.37449417008326" lon="10.545589872951089"><ele>133.0</ele><time>2026-04-02T15:58:43.959Z</time></trkpt><trkpt lat="45.374553468751806" lon="10.545646796982407"><ele>133.0</ele><time>2026-04-02T15:58:47.959Z</time></trkpt><trkpt lat="45.37462062612194" lon="10.545696335580088"><ele>134.28571428571428</ele><time>2026-04-02T15:58:51.959Z</time></trkpt><trkpt lat="45.374680249495604" lon="10.545746607864409"><ele>135.57142857142856</ele><time>2026-04-02T15:58:55.959Z</time></trkpt><trkpt lat="45.374743816710065" lon="10.545787153162255"><ele>136.85714285714286</ele><time>2026-04-02T15:58:59.959Z</time></trkpt><trkpt lat="45.37475857553722" lon="10.545882967387822"><ele>138.14285714285714</ele><time>2026-04-02T15:59:03.959Z</time></trkpt><trkpt lat="45.37473936037922" lon="10.545971004862484"><ele>139.42857142857142</ele><time>2026-04-02T15:59:06.959Z</time></trkpt><trkpt lat="45.374714444330664" lon="10.546065642233001"><ele>140.71428571428572</ele><time>2026-04-02T15:59:10.958Z</time></trkpt><trkpt lat="45.37472653080415" lon="10.546164061740166"><ele>142.0</ele><time>2026-04-02T15:59:13.958Z</time></trkpt><trkpt lat="45.37474824451887" lon="10.54625149919482"><ele>144.28571428571428</ele><time>2026-04-02T15:59:16.958Z</time></trkpt><trkpt lat="45.3747717393874" lon="10.54634213461195"><ele>146.57142857142856</ele><time>2026-04-02T15:59:19.958Z</time></trkpt><trkpt lat="45.374782198565065" lon="10.546453030841038"><ele>148.85714285714286</ele><time>2026-04-02T15:59:23.958Z</time></trkpt><trkpt lat="45.37479810149735" lon="10.546558505687786"><ele>151.14285714285714</ele><time>2026-04-02T15:59:26.958Z</time></trkpt><trkpt lat="45.37478716140071" lon="10.546667424317588"><ele>153.42857142857144</ele><time>2026-04-02T15:59:30.958Z</time></trkpt><trkpt lat="45.37479898796983" lon="10.546772000771847"><ele>155.71428571428572</ele><time>2026-04-02T15:59:33.958Z</time></trkpt><trkpt lat="45.374795218138146" lon="10.54687089779441"><ele>158.0</ele><time>2026-04-02T15:59:36.958Z</time></trkpt><trkpt lat="45.37480834174888" lon="10.546981562756264"><ele>158.00000000000003</ele><time>2026-04-02T15:59:39.958Z</time></trkpt><trkpt lat="45.374839129867816" lon="10.547080398371293"><ele>158.0</ele><time>2026-04-02T15:59:42.958Z</time></trkpt><trkpt lat="45.374890112021724" lon="10.547150441047368"><ele>158.0</ele><time>2026-04-02T15:59:45.958Z</time></trkpt><trkpt lat="45.374956950070214" lon="10.547172776141226"><ele>158.0</ele><time>2026-04-02T15:59:48.958Z</time></trkpt><trkpt lat="45.37500474877958" lon="10.547089885457357"><ele>158.0</ele><time>2026-04-02T15:59:52.957Z</time></trkpt><trkpt lat="45.37496281552607" lon="10.54701962078699"><ele>158.00000000000003</ele><time>2026-04-02T15:59:56.957Z</time></trkpt><trkpt lat="45.37494306458037" lon="10.546910366328595"><ele>158.0</ele><time>2026-04-02T16:00:01.957Z</time></trkpt><trkpt lat="45.37493964279103" lon="10.54680831237445"><ele>158.00000000000003</ele><time>2026-04-02T16:00:05.957Z</time></trkpt><trkpt lat="45.37493960561101" lon="10.546713569118486"><ele>158.0</ele><time>2026-04-02T16:00:08.957Z</time></trkpt><trkpt lat="45.37493189949416" lon="10.546615675054294"><ele>158.0</ele><time>2026-04-02T16:00:11.957Z</time></trkpt><trkpt lat="45.37491009853028" lon="10.546513906708785"><ele>158.0</ele><time>2026-04-02T16:00:18.957Z</time></trkpt><trkpt lat="45.37488185562091" lon="10.546433792576078"><ele>158.0</ele><time>2026-04-02T16:00:21.957Z</time></trkpt><trkpt lat="45.37486800639397" lon="10.546338676244176"><ele>158.00000000000003</ele><time>2026-04-02T16:00:24.957Z</time></trkpt><trkpt lat="45.374851646536186" lon="10.546239180050046"><ele>158.0</ele><time>2026-04-02T16:00:27.957Z</time></trkpt><trkpt lat="45.3748848173491" lon="10.546080024733087"><ele>157.66666666666666</ele><time>2026-04-02T16:00:31.957Z</time></trkpt><trkpt lat="45.374913362158125" lon="10.545978628551754"><ele>157.33333333333331</ele><time>2026-04-02T16:00:33.956Z</time></trkpt><trkpt lat="45.37492515506105" lon="10.54585414360302"><ele>157.0</ele><time>2026-04-02T16:00:36.956Z</time></trkpt><trkpt lat="45.37496162499242" lon="10.545767167025343"><ele>156.66666666666666</ele><time>2026-04-02T16:00:39.956Z</time></trkpt><trkpt lat="45.37499466664771" lon="10.54565849425875"><ele>156.33333333333334</ele><time>2026-04-02T16:00:42.956Z</time></trkpt><trkpt lat="45.37499080757487" lon="10.54556244103753"><ele>156.0</ele><time>2026-04-02T16:00:46.956Z</time></trkpt><trkpt lat="45.375025028268105" lon="10.545459891626866"><ele>154.5</ele><time>2026-04-02T16:00:50.956Z</time></trkpt><trkpt lat="45.375059732918245" lon="10.545346871248771"><ele>153.0</ele><time>2026-04-02T16:00:54.956Z</time></trkpt><trkpt lat="45.37509709471607" lon="10.54526611592348"><ele>151.5</ele><time>2026-04-02T16:00:59.955Z</time></trkpt><trkpt lat="45.37514160737093" lon="10.54517301296001"><ele>150.0</ele><time>2026-04-02T16:01:03.955Z</time></trkpt><trkpt lat="45.375185054085705" lon="10.545070302936427"><ele>148.5</ele><time>2026-04-02T16:01:08.955Z</time></trkpt><trkpt lat="45.375226765064774" lon="10.544980662631449"><ele>147.0</ele><time>2026-04-02T16:01:14.955Z</time></trkpt><trkpt lat="45.3752764903612" lon="10.54491902213337"><ele>147.0</ele><time>2026-04-02T16:01:19.955Z</time></trkpt><trkpt lat="45.3753189085938" lon="10.544843877048015"><ele>147.0</ele><time>2026-04-02T16:01:25.955Z</time></trkpt><trkpt lat="45.37536086625454" lon="10.54477617993456"><ele>147.0</ele><time>2026-04-02T16:01:31.955Z</time></trkpt><trkpt lat="45.37539182490417" lon="10.544689729302258"><ele>147.0</ele><time>2026-04-02T16:01:36.955Z</time></trkpt><trkpt lat="45.375463156762784" lon="10.544646095552284"><ele>147.0</ele><time>2026-04-02T16:01:43.954Z</time></trkpt><trkpt lat="45.375532497137314" lon="10.54450374174008"><ele>147.0</ele><time>2026-04-02T16:01:58.954Z</time></trkpt><trkpt lat="45.37558418129734" lon="10.54444721914588"><ele>144.57142857142858</ele><time>2026-04-02T16:02:04.954Z</time></trkpt><trkpt lat="45.375655343015694" lon="10.54441310271908"><ele>142.14285714285714</ele><time>2026-04-02T16:02:10.954Z</time></trkpt><trkpt lat="45.375659909800405" lon="10.544307332852416"><ele>139.71428571428572</ele><time>2026-04-02T16:02:14.954Z</time></trkpt><trkpt lat="45.37566370083152" lon="10.544211282077255"><ele>137.28571428571428</ele><time>2026-04-02T16:02:17.954Z</time></trkpt><trkpt lat="45.375661396149155" lon="10.544111283489702"><ele>134.85714285714286</ele><time>2026-04-02T16:02:20.954Z</time></trkpt><trkpt lat="45.37564785865579" lon="10.544015427591434"><ele>132.42857142857144</ele><time>2026-04-02T16:02:22.954Z</time></trkpt><trkpt lat="45.37562118539598" lon="10.543921748644536"><ele>130.0</ele><time>2026-04-02T16:02:24.953Z</time></trkpt><trkpt lat="45.37557228852859" lon="10.5438278745507"><ele>130.0</ele><time>2026-04-02T16:02:27.953Z</time></trkpt><trkpt lat="45.37551846075979" lon="10.54373111910851"><ele>130.0</ele><time>2026-04-02T16:02:30.953Z</time></trkpt><trkpt lat="45.37545801465601" lon="10.543637698327297"><ele>130.0</ele><time>2026-04-02T16:02:33.953Z</time></trkpt><trkpt lat="45.37541503286561" lon="10.543556077009868"><ele>130.0</ele><time>2026-04-02T16:02:35.953Z</time></trkpt><trkpt lat="45.375353515620255" lon="10.543471255177588"><ele>130.0</ele><time>2026-04-02T16:02:38.953Z</time></trkpt><trkpt lat="45.37527077307615" lon="10.543454005097194"><ele>130.0</ele><time>2026-04-02T16:02:41.953Z</time></trkpt><trkpt lat="45.37518361153345" lon="10.543468312588063"><ele>129.33333333333334</ele><time>2026-04-02T16:02:44.953Z</time></trkpt><trkpt lat="45.37510190103887" lon="10.543475495322095"><ele>128.66666666666669</ele><time>2026-04-02T16:02:47.953Z</time></trkpt><trkpt lat="45.375011052207185" lon="10.543491250277478"><ele>128.0</ele><time>2026-04-02T16:02:50.953Z</time></trkpt><trkpt lat="45.37494290190084" lon="10.543497684078456"><ele>127.33333333333334</ele><time>2026-04-02T16:02:52.953Z</time></trkpt><trkpt lat="45.37485335119237" lon="10.543514534585192"><ele>126.66666666666667</ele><time>2026-04-02T16:02:55.953Z</time></trkpt><trkpt lat="45.37476060839013" lon="10.543501928186126"><ele>126.0</ele><time>2026-04-02T16:02:58.952Z</time></trkpt><trkpt lat="45.37469673712043" lon="10.543482382292986"><ele>126.28571428571428</ele><time>2026-04-02T16:03:00.952Z</time></trkpt><trkpt lat="45.374617310167245" lon="10.543442375476399"><ele>126.57142857142857</ele><time>2026-04-02T16:03:03.952Z</time></trkpt><trkpt lat="45.37453578674144" lon="10.543381267039884"><ele>126.85714285714286</ele><time>2026-04-02T16:03:06.952Z</time></trkpt><trkpt lat="45.37448383442963" lon="10.543306917388913"><ele>127.14285714285714</ele><time>2026-04-02T16:03:09.952Z</time></trkpt><trkpt lat="45.3744412811181" lon="10.543240609995186"><ele>127.42857142857142</ele><time>2026-04-02T16:03:12.952Z</time></trkpt><trkpt lat="45.37442439977692" lon="10.543153595116573"><ele>127.71428571428571</ele><time>2026-04-02T16:03:15.951Z</time></trkpt><trkpt lat="45.374425784986464" lon="10.5430546054742"><ele>128.0</ele><time>2026-04-02T16:03:18.951Z</time></trkpt><trkpt lat="45.37446704392988" lon="10.542962130098108"><ele>128.42857142857142</ele><time>2026-04-02T16:03:22.951Z</time></trkpt><trkpt lat="45.37449691982064" lon="10.542870440253628"><ele>128.85714285714283</ele><time>2026-04-02T16:03:27.951Z</time></trkpt><trkpt lat="45.37455819008266" lon="10.542831148434084"><ele>129.28571428571428</ele><time>2026-04-02T16:03:34.951Z</time></trkpt><trkpt lat="45.374614925431366" lon="10.542759179323024"><ele>129.71428571428572</ele><time>2026-04-02T16:03:37.951Z</time></trkpt><trkpt lat="45.37467378045933" lon="10.542692285989506"><ele>130.14285714285717</ele><time>2026-04-02T16:03:40.951Z</time></trkpt><trkpt lat="45.374733834414016" lon="10.542618890570974"><ele>130.57142857142858</ele><time>2026-04-02T16:03:43.951Z</time></trkpt><trkpt lat="45.37479117330964" lon="10.542550925906102"><ele>131.0</ele><time>2026-04-02T16:03:46.951Z</time></trkpt><trkpt lat="45.37484682629876" lon="10.542481274213793"><ele>131.0</ele><time>2026-04-02T16:03:49.951Z</time></trkpt><trkpt lat="45.37486756359839" lon="10.542382146053601"><ele>131.0</ele><time>2026-04-02T16:03:52.951Z</time></trkpt><trkpt lat="45.37491542937368" lon="10.542301347848719"><ele>131.0</ele><time>2026-04-02T16:03:55.951Z</time></trkpt><trkpt lat="45.37497905581082" lon="10.542250081613172"><ele>131.0</ele><time>2026-04-02T16:03:58.95Z</time></trkpt><trkpt lat="45.37501181596316" lon="10.542171726968782"><ele>131.0</ele><time>2026-04-02T16:04:01.95Z</time></trkpt><trkpt lat="45.37504415454231" lon="10.542061454315949"><ele>131.0</ele><time>2026-04-02T16:04:05.95Z</time></trkpt><trkpt lat="45.375065076946335" lon="10.541968668845362"><ele>131.0</ele><time>2026-04-02T16:04:08.95Z</time></trkpt><trkpt lat="45.37510410599512" lon="10.541887483293522"><ele>132.5</ele><time>2026-04-02T16:04:11.95Z</time></trkpt><trkpt lat="45.37513623562933" lon="10.541803515665801"><ele>134.0</ele><time>2026-04-02T16:04:14.95Z</time></trkpt><trkpt lat="45.3751670092946" lon="10.541703411471687"><ele>135.5</ele><time>2026-04-02T16:04:17.95Z</time></trkpt><trkpt lat="45.37521418361124" lon="10.541614540687572"><ele>137.0</ele><time>2026-04-02T16:04:20.95Z</time></trkpt><trkpt lat="45.375291311741904" lon="10.541553586157944"><ele>138.5</ele><time>2026-04-02T16:04:23.95Z</time></trkpt><trkpt lat="45.37534724972237" lon="10.541484597405113"><ele>140.0</ele><time>2026-04-02T16:04:26.95Z</time></trkpt><trkpt lat="45.375417137849624" lon="10.541435995974608"><ele>140.0</ele><time>2026-04-02T16:04:29.95Z</time></trkpt><trkpt lat="45.3754902225606" lon="10.541371576220065"><ele>140.0</ele><time>2026-04-02T16:04:32.95Z</time></trkpt><trkpt lat="45.375552319953094" lon="10.541328721853299"><ele>140.0</ele><time>2026-04-02T16:04:35.95Z</time></trkpt><trkpt lat="45.375622923951504" lon="10.541264919320085"><ele>140.0</ele><time>2026-04-02T16:04:38.949Z</time></trkpt><trkpt lat="45.375686383399575" lon="10.541226456371547"><ele>140.0</ele><time>2026-04-02T16:04:42.949Z</time></trkpt><trkpt lat="45.37576980182089" lon="10.541199512663036"><ele>140.0</ele><time>2026-04-02T16:04:47.949Z</time></trkpt><trkpt lat="45.375845767096095" lon="10.541172925938408"><ele>141.33333333333331</ele><time>2026-04-02T16:04:50.949Z</time></trkpt><trkpt lat="45.375911447169514" lon="10.541143613812942"><ele>142.66666666666666</ele><time>2026-04-02T16:04:53.949Z</time></trkpt><trkpt lat="45.37599402087352" lon="10.541123837434917"><ele>144.0</ele><time>2026-04-02T16:04:56.949Z</time></trkpt><trkpt lat="45.37607513003502" lon="10.54109053791938"><ele>145.33333333333334</ele><time>2026-04-02T16:04:59.949Z</time></trkpt><trkpt lat="45.37615730183667" lon="10.541083115950178"><ele>146.66666666666669</ele><time>2026-04-02T16:05:02.949Z</time></trkpt><trkpt lat="45.376234284023134" lon="10.541052022559821"><ele>148.0</ele><time>2026-04-02T16:05:05.948Z</time></trkpt><trkpt lat="45.376302260721204" lon="10.541036167215005"><ele>148.0</ele><time>2026-04-02T16:05:08.948Z</time></trkpt><trkpt lat="45.376370905875405" lon="10.541017950866745"><ele>148.0</ele><time>2026-04-02T16:05:11.949Z</time></trkpt><trkpt lat="45.37644100098262" lon="10.540998612891048"><ele>148.0</ele><time>2026-04-02T16:05:14.948Z</time></trkpt><trkpt lat="45.37650439904881" lon="10.540940665432785"><ele>148.0</ele><time>2026-04-02T16:05:17.949Z</time></trkpt><trkpt lat="45.376572338576196" lon="10.540916407652233"><ele>148.0</ele><time>2026-04-02T16:05:20.948Z</time></trkpt><trkpt lat="45.37664712298091" lon="10.540885820142615"><ele>148.0</ele><time>2026-04-02T16:05:24.948Z</time></trkpt><trkpt lat="45.376719243703334" lon="10.54084685231006"><ele>148.0</ele><time>2026-04-02T16:05:27.948Z</time></trkpt><trkpt lat="45.376788651720496" lon="10.540835247424932"><ele>148.0</ele><time>2026-04-02T16:05:30.948Z</time></trkpt><trkpt lat="45.37686786837003" lon="10.540809753440017"><ele>148.0</ele><time>2026-04-02T16:05:34.948Z</time></trkpt><trkpt lat="45.37692267624029" lon="10.54073123026483"><ele>148.0</ele><time>2026-04-02T16:05:37.948Z</time></trkpt><trkpt lat="45.37697158108889" lon="10.54064926351827"><ele>148.0</ele><time>2026-04-02T16:05:41.948Z</time></trkpt><trkpt lat="45.37705126199041" lon="10.54061443194559"><ele>148.0</ele><time>2026-04-02T16:05:45.948Z</time></trkpt><trkpt lat="45.377120425599664" lon="10.540620832750973"><ele>148.0</ele><time>2026-04-02T16:05:50.948Z</time></trkpt><trkpt lat="45.37718222334767" lon="10.540597917944837"><ele>148.57142857142858</ele><time>2026-04-02T16:05:54.948Z</time></trkpt><trkpt lat="45.3772459496561" lon="10.54058523753673"><ele>149.14285714285714</ele><time>2026-04-02T16:05:57.948Z</time></trkpt><trkpt lat="45.377310099898416" lon="10.540577620488195"><ele>149.71428571428572</ele><time>2026-04-02T16:06:03.947Z</time></trkpt><trkpt lat="45.37738267524262" lon="10.540576773811948"><ele>150.28571428571428</ele><time>2026-04-02T16:06:10.947Z</time></trkpt><trkpt lat="45.37745945893965" lon="10.540566899784064"><ele>150.85714285714286</ele><time>2026-04-02T16:06:13.947Z</time></trkpt><trkpt lat="45.377526118943955" lon="10.540576172548292"><ele>151.42857142857142</ele><time>2026-04-02T16:06:18.947Z</time></trkpt><trkpt lat="45.377607353075746" lon="10.540580063510083"><ele>152.0</ele><time>2026-04-02T16:06:22.947Z</time></trkpt><trkpt lat="45.37767558744099" lon="10.540567298561733"><ele>152.0</ele><time>2026-04-02T16:06:25.947Z</time></trkpt><trkpt lat="45.377761753340295" lon="10.540565012890319"><ele>152.0</ele><time>2026-04-02T16:06:28.947Z</time></trkpt><trkpt lat="45.37782442413045" lon="10.540519838824926"><ele>152.0</ele><time>2026-04-02T16:06:30.947Z</time></trkpt><trkpt lat="45.37788899166903" lon="10.540454471242594"><ele>152.0</ele><time>2026-04-02T16:06:34.947Z</time></trkpt><trkpt lat="45.37794497713336" lon="10.540385375243256"><ele>152.0</ele><time>2026-04-02T16:06:37.947Z</time></trkpt><trkpt lat="45.37799625429885" lon="10.540312435051634"><ele>152.0</ele><time>2026-04-02T16:06:40.947Z</time></trkpt><trkpt lat="45.37803973483488" lon="10.540243796813423"><ele>152.0</ele><time>2026-04-02T16:06:43.946Z</time></trkpt><trkpt lat="45.378083664239895" lon="10.540170938521499"><ele>153.28571428571428</ele><time>2026-04-02T16:06:46.946Z</time></trkpt><trkpt lat="45.37812637781153" lon="10.540094857037477"><ele>154.57142857142858</ele><time>2026-04-02T16:06:49.946Z</time></trkpt><trkpt lat="45.3781655904739" lon="10.540005428503694"><ele>155.85714285714286</ele><time>2026-04-02T16:06:52.946Z</time></trkpt><trkpt lat="45.37820480575494" lon="10.539924607172138"><ele>157.14285714285714</ele><time>2026-04-02T16:06:55.946Z</time></trkpt><trkpt lat="45.37823040835827" lon="10.539828244572128"><ele>158.42857142857144</ele><time>2026-04-02T16:06:58.946Z</time></trkpt><trkpt lat="45.37825657179164" lon="10.539734517327396"><ele>159.71428571428572</ele><time>2026-04-02T16:07:01.946Z</time></trkpt><trkpt lat="45.37827889524924" lon="10.539650367263807"><ele>161.0</ele><time>2026-04-02T16:07:04.946Z</time></trkpt><trkpt lat="45.37830260770233" lon="10.539551054841159"><ele>161.57142857142858</ele><time>2026-04-02T16:07:08.946Z</time></trkpt><trkpt lat="45.37830342987556" lon="10.539453879436847"><ele>162.14285714285714</ele><time>2026-04-02T16:07:11.945Z</time></trkpt><trkpt lat="45.37833225802789" lon="10.539338682945619"><ele>162.71428571428572</ele><time>2026-04-02T16:07:15.946Z</time></trkpt><trkpt lat="45.37838606811865" lon="10.539282850334807"><ele>163.28571428571428</ele><time>2026-04-02T16:07:19.945Z</time></trkpt><trkpt lat="45.37841102309248" lon="10.539196965923916"><ele>163.85714285714286</ele><time>2026-04-02T16:07:37.944Z</time></trkpt><trkpt lat="45.37840316866427" lon="10.53910401809296"><ele>164.42857142857144</ele><time>2026-04-02T16:07:43.944Z</time></trkpt><trkpt lat="45.37839722129874" lon="10.539003530490273"><ele>165.0</ele><time>2026-04-02T16:07:48.944Z</time></trkpt><trkpt lat="45.37840019641095" lon="10.538905043891766"><ele>165.00000000000003</ele><time>2026-04-02T16:07:53.944Z</time></trkpt><trkpt lat="45.37841806214859" lon="10.538804585841996"><ele>165.0</ele><time>2026-04-02T16:07:56.944Z</time></trkpt><trkpt lat="45.37844074822952" lon="10.538704918123052"><ele>165.0</ele><time>2026-04-02T16:07:59.944Z</time></trkpt><trkpt lat="45.37846793373216" lon="10.538604494070738"><ele>165.0</ele><time>2026-04-02T16:08:02.944Z</time></trkpt><trkpt lat="45.37850761464749" lon="10.538526642576166"><ele>165.0</ele><time>2026-04-02T16:08:05.944Z</time></trkpt><trkpt lat="45.37855621514888" lon="10.53845422178934"><ele>165.00000000000003</ele><time>2026-04-02T16:08:08.944Z</time></trkpt><trkpt lat="45.378623641915226" lon="10.538390111374612"><ele>165.0</ele><time>2026-04-02T16:08:12.944Z</time></trkpt><trkpt lat="45.37867290977882" lon="10.538332677265975"><ele>165.2857142857143</ele><time>2026-04-02T16:08:16.943Z</time></trkpt><trkpt lat="45.378709765333554" lon="10.538231544420515"><ele>165.57142857142858</ele><time>2026-04-02T16:08:21.943Z</time></trkpt><trkpt lat="45.378737841615745" lon="10.538142517680948"><ele>165.85714285714286</ele><time>2026-04-02T16:08:25.943Z</time></trkpt><trkpt lat="45.378767830549435" lon="10.538061826784828"><ele>166.14285714285717</ele><time>2026-04-02T16:08:28.943Z</time></trkpt><trkpt lat="45.378807339799145" lon="10.537986494828033"><ele>166.42857142857144</ele><time>2026-04-02T16:08:32.943Z</time></trkpt><trkpt lat="45.37885833085444" lon="10.537929438032975"><ele>166.71428571428572</ele><time>2026-04-02T16:08:35.943Z</time></trkpt><trkpt lat="45.37891806310254" lon="10.53784544995619"><ele>167.0</ele><time>2026-04-02T16:08:39.943Z</time></trkpt><trkpt lat="45.37899393073599" lon="10.53778389259891"><ele>167.0</ele><time>2026-04-02T16:08:42.943Z</time></trkpt><trkpt lat="45.379060958681464" lon="10.537733016112801"><ele>167.0</ele><time>2026-04-02T16:08:44.943Z</time></trkpt><trkpt lat="45.37911724422199" lon="10.537680423094995"><ele>167.0</ele><time>2026-04-02T16:08:46.943Z</time></trkpt><trkpt lat="45.379169353851175" lon="10.53761209668668"><ele>167.0</ele><time>2026-04-02T16:08:48.943Z</time></trkpt><trkpt lat="45.379216604168406" lon="10.537531401872627"><ele>167.0</ele><time>2026-04-02T16:08:50.943Z</time></trkpt><trkpt lat="45.37926563178157" lon="10.537451734173557"><ele>167.0</ele><time>2026-04-02T16:08:52.943Z</time></trkpt><trkpt lat="45.37931244006439" lon="10.537367863308356"><ele>167.0</ele><time>2026-04-02T16:08:54.942Z</time></trkpt><trkpt lat="45.37935269950454" lon="10.537280079462258"><ele>167.0</ele><time>2026-04-02T16:08:56.942Z</time></trkpt><trkpt lat="45.37938749046367" lon="10.537199293687438"><ele>167.0</ele><time>2026-04-02T16:08:58.942Z</time></trkpt><trkpt lat="45.379434584860135" lon="10.53712237936043"><ele>167.0</ele><time>2026-04-02T16:09:00.942Z</time></trkpt><trkpt lat="45.37951045291726" lon="10.537059992970429"><ele>167.0</ele><time>2026-04-02T16:09:03.942Z</time></trkpt><trkpt lat="45.37958615420674" lon="10.536982031158034"><ele>167.0</ele><time>2026-04-02T16:09:06.942Z</time></trkpt><trkpt lat="45.37963445809984" lon="10.536910143295248"><ele>167.0</ele><time>2026-04-02T16:09:08.942Z</time></trkpt><trkpt lat="45.379684345257935" lon="10.536837180762152"><ele>165.57142857142856</ele><time>2026-04-02T16:09:10.942Z</time></trkpt><trkpt lat="45.37973356075976" lon="10.536778645878934"><ele>164.14285714285714</ele><time>2026-04-02T16:09:12.942Z</time></trkpt><trkpt lat="45.379795117420734" lon="10.536706797962974"><ele>162.71428571428572</ele><time>2026-04-02T16:09:14.942Z</time></trkpt><trkpt lat="45.379860068353935" lon="10.536666462064357"><ele>161.28571428571428</ele><time>2026-04-02T16:09:16.943Z</time></trkpt><trkpt lat="45.37993258592857" lon="10.53659479522564"><ele>159.85714285714286</ele><time>2026-04-02T16:09:19.942Z</time></trkpt><trkpt lat="45.379959140808886" lon="10.53651282529894"><ele>158.42857142857142</ele><time>2026-04-02T16:09:21.942Z</time></trkpt><trkpt lat="45.37997835939102" lon="10.536414659048495"><ele>157.0</ele><time>2026-04-02T16:09:23.942Z</time></trkpt><trkpt lat="45.37999197751825" lon="10.536324549211391"><ele>158.66666666666669</ele><time>2026-04-02T16:09:25.942Z</time></trkpt><trkpt lat="45.38002909778907" lon="10.536209856178273"><ele>160.33333333333334</ele><time>2026-04-02T16:09:28.942Z</time></trkpt><trkpt lat="45.38004634380172" lon="10.53609126623332"><ele>162.0</ele><time>2026-04-02T16:09:31.942Z</time></trkpt><trkpt lat="45.38006524413383" lon="10.536003499850217"><ele>163.66666666666666</ele><time>2026-04-02T16:09:33.942Z</time></trkpt><trkpt lat="45.38006850273807" lon="10.53586554409483"><ele>165.33333333333331</ele><time>2026-04-02T16:09:36.942Z</time></trkpt><trkpt lat="45.38007432323497" lon="10.535739356268664"><ele>167.0</ele><time>2026-04-02T16:09:39.942Z</time></trkpt><trkpt lat="45.38009108503053" lon="10.535607913119119"><ele>167.0</ele><time>2026-04-02T16:09:42.942Z</time></trkpt><trkpt lat="45.38011504102113" lon="10.535490231181015"><ele>167.0</ele><time>2026-04-02T16:09:45.942Z</time></trkpt><trkpt lat="45.3801195461428" lon="10.53537940828078"><ele>167.0</ele><time>2026-04-02T16:09:48.942Z</time></trkpt><trkpt lat="45.38015073646629" lon="10.535264172631202"><ele>167.0</ele><time>2026-04-02T16:09:51.942Z</time></trkpt><trkpt lat="45.38018455965712" lon="10.53515425795699"><ele>167.0</ele><time>2026-04-02T16:09:54.942Z</time></trkpt><trkpt lat="45.380226199001335" lon="10.535061659979318"><ele>167.0</ele><time>2026-04-02T16:09:57.942Z</time></trkpt><trkpt lat="45.38025819420934" lon="10.53493756538198"><ele>168.5</ele><time>2026-04-02T16:10:00.942Z</time></trkpt><trkpt lat="45.38027880788697" lon="10.534840766411985"><ele>170.0</ele><time>2026-04-02T16:10:02.942Z</time></trkpt><trkpt lat="45.38031045583206" lon="10.534723163821704"><ele>171.5</ele><time>2026-04-02T16:10:05.941Z</time></trkpt><trkpt lat="45.380327102566014" lon="10.534617210266394"><ele>173.0</ele><time>2026-04-02T16:10:08.941Z</time></trkpt><trkpt lat="45.38034606315247" lon="10.534516207868492"><ele>174.5</ele><time>2026-04-02T16:10:10.941Z</time></trkpt><trkpt lat="45.38036933225639" lon="10.534413165299668"><ele>176.0</ele><time>2026-04-02T16:10:12.941Z</time></trkpt><trkpt lat="45.380392498425906" lon="10.53431449883568"><ele>176.83333333333331</ele><time>2026-04-02T16:10:14.941Z</time></trkpt><trkpt lat="45.38036435981429" lon="10.534188044383157"><ele>177.66666666666666</ele><time>2026-04-02T16:10:17.941Z</time></trkpt><trkpt lat="45.38036688671027" lon="10.534089086373289"><ele>178.5</ele><time>2026-04-02T16:10:19.941Z</time></trkpt><trkpt lat="45.38036332539764" lon="10.533997355261562"><ele>179.33333333333334</ele><time>2026-04-02T16:10:21.941Z</time></trkpt><trkpt lat="45.38032062550056" lon="10.533903323574098"><ele>180.16666666666669</ele><time>2026-04-02T16:10:24.941Z</time></trkpt><trkpt lat="45.380287611586226" lon="10.533817741451236"><ele>181.0</ele><time>2026-04-02T16:10:27.941Z</time></trkpt><trkpt lat="45.38024206875169" lon="10.53373264027145"><ele>180.85714285714286</ele><time>2026-04-02T16:10:30.941Z</time></trkpt><trkpt lat="45.38021382858054" lon="10.533651998033665"><ele>180.71428571428572</ele><time>2026-04-02T16:10:32.941Z</time></trkpt><trkpt lat="45.38018348155186" lon="10.533543141029728"><ele>180.57142857142856</ele><time>2026-04-02T16:10:35.941Z</time></trkpt><trkpt lat="45.380169790555335" lon="10.533434550079415"><ele>180.42857142857144</ele><time>2026-04-02T16:10:39.941Z</time></trkpt><trkpt lat="45.380128433874276" lon="10.53333444007679"><ele>180.2857142857143</ele><time>2026-04-02T16:10:43.941Z</time></trkpt><trkpt lat="45.38007875830817" lon="10.53326315839743"><ele>180.14285714285714</ele><time>2026-04-02T16:10:47.94Z</time></trkpt><trkpt lat="45.38003140601756" lon="10.533193909464815"><ele>180.0</ele><time>2026-04-02T16:10:52.94Z</time></trkpt><trkpt lat="45.379996261629316" lon="10.53310665107965"><ele>180.0</ele><time>2026-04-02T16:10:58.94Z</time></trkpt><trkpt lat="45.37993613649847" lon="10.533032809787677"><ele>180.0</ele><time>2026-04-02T16:11:05.94Z</time></trkpt><trkpt lat="45.379876931714485" lon="10.532993072073108"><ele>180.0</ele><time>2026-04-02T16:11:10.94Z</time></trkpt><trkpt lat="45.379816877970214" lon="10.532947006917409"><ele>180.0</ele><time>2026-04-02T16:11:15.94Z</time></trkpt><trkpt lat="45.37976056417553" lon="10.532895346860473"><ele>180.0</ele><time>2026-04-02T16:11:19.94Z</time></trkpt><trkpt lat="45.379685409818954" lon="10.53290600819376"><ele>180.0</ele><time>2026-04-02T16:11:28.939Z</time></trkpt><trkpt lat="45.379625927712326" lon="10.532936301547364"><ele>180.0</ele><time>2026-04-02T16:11:34.939Z</time></trkpt><trkpt lat="45.37959502240405" lon="10.533023081629947"><ele>181.16666666666666</ele><time>2026-04-02T16:11:41.938Z</time></trkpt><trkpt lat="45.379565725613055" lon="10.533123298557504"><ele>182.33333333333334</ele><time>2026-04-02T16:11:46.938Z</time></trkpt><trkpt lat="45.37957122384824" lon="10.533235790277377"><ele>183.5</ele><time>2026-04-02T16:11:49.938Z</time></trkpt><trkpt lat="45.37961198964303" lon="10.533372030096547"><ele>184.66666666666669</ele><time>2026-04-02T16:12:15.938Z</time></trkpt><trkpt lat="45.37964037438926" lon="10.533482506623557"><ele>185.83333333333334</ele><time>2026-04-02T16:12:18.938Z</time></trkpt><trkpt lat="45.37963774263714" lon="10.53359298355161"><ele>187.0</ele><time>2026-04-02T16:12:21.938Z</time></trkpt><trkpt lat="45.37965729574183" lon="10.533699981844512"><ele>186.16666666666669</ele><time>2026-04-02T16:12:23.937Z</time></trkpt><trkpt lat="45.37970842773853" lon="10.53381259668966"><ele>185.33333333333334</ele><time>2026-04-02T16:12:29.937Z</time></trkpt><trkpt lat="45.37973972418357" lon="10.533916819272605"><ele>184.5</ele><time>2026-04-02T16:12:39.937Z</time></trkpt><trkpt lat="45.37974062555242" lon="10.534028517044451"><ele>183.66666666666666</ele><time>2026-04-02T16:12:43.937Z</time></trkpt><trkpt lat="45.37972023401441" lon="10.53411503757671"><ele>182.83333333333331</ele><time>2026-04-02T16:12:46.937Z</time></trkpt><trkpt lat="45.379681965861245" lon="10.534202246810544"><ele>182.0</ele><time>2026-04-02T16:12:49.937Z</time></trkpt><trkpt lat="45.379628028103866" lon="10.534308110271557"><ele>182.0</ele><time>2026-04-02T16:12:52.937Z</time></trkpt><trkpt lat="45.37960219061641" lon="10.534407927276435"><ele>182.0</ele><time>2026-04-02T16:12:54.937Z</time></trkpt><trkpt lat="45.37959624162247" lon="10.534500523946399"><ele>182.0</ele><time>2026-04-02T16:12:56.937Z</time></trkpt><trkpt lat="45.3795749210812" lon="10.534585115105735"><ele>182.0</ele><time>2026-04-02T16:12:59.937Z</time></trkpt><trkpt lat="45.37954658733448" lon="10.534678286416485"><ele>182.0</ele><time>2026-04-02T16:13:02.937Z</time></trkpt><trkpt lat="45.379500795785155" lon="10.534762339611763"><ele>182.0</ele><time>2026-04-02T16:13:05.936Z</time></trkpt><trkpt lat="45.37946260900431" lon="10.534848096980339"><ele>182.0</ele><time>2026-04-02T16:13:08.936Z</time></trkpt><trkpt lat="45.37942179422387" lon="10.5349357211699"><ele>181.83333333333331</ele><time>2026-04-02T16:13:11.936Z</time></trkpt><trkpt lat="45.37937933989527" lon="10.535039134715847"><ele>181.66666666666666</ele><time>2026-04-02T16:13:14.936Z</time></trkpt><trkpt lat="45.37933265883448" lon="10.535127252819663"><ele>181.5</ele><time>2026-04-02T16:13:17.936Z</time></trkpt><trkpt lat="45.3792891527464" lon="10.535246010017666"><ele>181.33333333333334</ele><time>2026-04-02T16:13:20.936Z</time></trkpt><trkpt lat="45.37925421899208" lon="10.535344541480379"><ele>181.16666666666669</ele><time>2026-04-02T16:13:23.936Z</time></trkpt><trkpt lat="45.379213245939496" lon="10.535449318781263"><ele>181.0</ele><time>2026-04-02T16:13:26.936Z</time></trkpt><trkpt lat="45.37917673015264" lon="10.535554486851233"><ele>180.66666666666669</ele><time>2026-04-02T16:13:29.936Z</time></trkpt><trkpt lat="45.379125782977894" lon="10.535659370315386"><ele>180.33333333333334</ele><time>2026-04-02T16:13:32.936Z</time></trkpt><trkpt lat="45.37908655838489" lon="10.535736586727953"><ele>180.0</ele><time>2026-04-02T16:13:34.936Z</time></trkpt><trkpt lat="45.37905841094473" lon="10.535844427203807"><ele>179.66666666666666</ele><time>2026-04-02T16:13:36.936Z</time></trkpt><trkpt lat="45.379030918008425" lon="10.535930481904257"><ele>179.33333333333331</ele><time>2026-04-02T16:13:38.936Z</time></trkpt><trkpt lat="45.3790005967104" lon="10.536050524555872"><ele>179.0</ele><time>2026-04-02T16:13:41.936Z</time></trkpt><trkpt lat="45.37895568300866" lon="10.536156937854837"><ele>178.5</ele><time>2026-04-02T16:13:44.936Z</time></trkpt><trkpt lat="45.37891098538709" lon="10.536232718093864"><ele>178.0</ele><time>2026-04-02T16:13:46.936Z</time></trkpt><trkpt lat="45.37885800599439" lon="10.536286451569271"><ele>177.5</ele><time>2026-04-02T16:13:48.936Z</time></trkpt><trkpt lat="45.37878489378068" lon="10.536353960421483"><ele>177.0</ele><time>2026-04-02T16:13:51.936Z</time></trkpt><trkpt lat="45.37873135864762" lon="10.536413090746546"><ele>176.5</ele><time>2026-04-02T16:13:53.936Z</time></trkpt><trkpt lat="45.37867955928188" lon="10.536498338299921"><ele>176.0</ele><time>2026-04-02T16:13:56.935Z</time></trkpt><trkpt lat="45.37862459906922" lon="10.53660701434354"><ele>175.66666666666666</ele><time>2026-04-02T16:13:59.935Z</time></trkpt><trkpt lat="45.37858693289084" lon="10.53668618727251"><ele>175.33333333333331</ele><time>2026-04-02T16:14:01.935Z</time></trkpt><trkpt lat="45.37853739841537" lon="10.536773135582228"><ele>175.0</ele><time>2026-04-02T16:14:03.935Z</time></trkpt><trkpt lat="45.378505557728054" lon="10.53687006490462"><ele>174.66666666666666</ele><time>2026-04-02T16:14:06.935Z</time></trkpt><trkpt lat="45.37846828100082" lon="10.536990720553463"><ele>174.33333333333334</ele><time>2026-04-02T16:14:09.935Z</time></trkpt><trkpt lat="45.37845170683606" lon="10.537092075108907"><ele>174.0</ele><time>2026-04-02T16:14:11.935Z</time></trkpt><trkpt lat="45.378418172967294" lon="10.53719276217059"><ele>173.83333333333334</ele><time>2026-04-02T16:14:13.935Z</time></trkpt><trkpt lat="45.37839296316195" lon="10.537282430503321"><ele>173.66666666666666</ele><time>2026-04-02T16:14:15.935Z</time></trkpt><trkpt lat="45.37836047351228" lon="10.537364326017014"><ele>173.5</ele><time>2026-04-02T16:14:17.935Z</time></trkpt><trkpt lat="45.378325533092344" lon="10.537489174449513"><ele>173.33333333333331</ele><time>2026-04-02T16:14:20.935Z</time></trkpt><trkpt lat="45.37827985865932" lon="10.53757568825378"><ele>173.16666666666666</ele><time>2026-04-02T16:14:23.935Z</time></trkpt><trkpt lat="45.37822268830979" lon="10.537686054876612"><ele>173.0</ele><time>2026-04-02T16:14:26.935Z</time></trkpt><trkpt lat="45.37817710045229" lon="10.537754421491995"><ele>173.0</ele><time>2026-04-02T16:14:28.935Z</time></trkpt><trkpt lat="45.37813212485116" lon="10.537862421041336"><ele>173.0</ele><time>2026-04-02T16:14:31.935Z</time></trkpt><trkpt lat="45.37807078282117" lon="10.537929739703765"><ele>173.0</ele><time>2026-04-02T16:14:34.935Z</time></trkpt><trkpt lat="45.377997671546886" lon="10.537979060866435"><ele>173.0</ele><time>2026-04-02T16:14:37.934Z</time></trkpt><trkpt lat="45.377913011337675" lon="10.538026091573663"><ele>173.0</ele><time>2026-04-02T16:14:40.934Z</time></trkpt><trkpt lat="45.37784562658518" lon="10.53808808945533"><ele>173.0</ele><time>2026-04-02T16:14:43.934Z</time></trkpt><trkpt lat="45.37777649518066" lon="10.53813115884194"><ele>171.16666666666666</ele><time>2026-04-02T16:14:46.934Z</time></trkpt><trkpt lat="45.377719611464926" lon="10.538180839519613"><ele>169.33333333333331</ele><time>2026-04-02T16:14:48.934Z</time></trkpt><trkpt lat="45.37765682161959" lon="10.538216304438036"><ele>167.5</ele><time>2026-04-02T16:14:50.934Z</time></trkpt><trkpt lat="45.37759611945066" lon="10.538260023530626"><ele>165.66666666666666</ele><time>2026-04-02T16:14:52.934Z</time></trkpt><trkpt lat="45.37751933850557" lon="10.538325510032813"><ele>163.83333333333334</ele><time>2026-04-02T16:14:55.934Z</time></trkpt><trkpt lat="45.37743708445893" lon="10.53839904549625"><ele>162.0</ele><time>2026-04-02T16:14:58.934Z</time></trkpt><trkpt lat="45.37734920377121" lon="10.538429141972388"><ele>162.0</ele><time>2026-04-02T16:15:01.934Z</time></trkpt><trkpt lat="45.37725684083376" lon="10.538443831070888"><ele>162.0</ele><time>2026-04-02T16:15:04.934Z</time></trkpt><trkpt lat="45.37717725622286" lon="10.53844403050947"><ele>162.0</ele><time>2026-04-02T16:15:08.934Z</time></trkpt><trkpt lat="45.37711719775827" lon="10.538412494117825"><ele>162.0</ele><time>2026-04-02T16:15:11.934Z</time></trkpt><trkpt lat="45.37703840258169" lon="10.538387799931469"><ele>162.0</ele><time>2026-04-02T16:15:15.934Z</time></trkpt><trkpt lat="45.376960228756076" lon="10.538369839565956"><ele>162.0</ele><time>2026-04-02T16:15:19.933Z</time></trkpt><trkpt lat="45.37690172594811" lon="10.538405245626208"><ele>160.83333333333334</ele><time>2026-04-02T16:15:23.933Z</time></trkpt><trkpt lat="45.376845827587665" lon="10.538448541640497"><ele>159.66666666666666</ele><time>2026-04-02T16:15:32.933Z</time></trkpt><trkpt lat="45.37676707151534" lon="10.53847929685752"><ele>158.5</ele><time>2026-04-02T16:15:37.932Z</time></trkpt><trkpt lat="45.37670768326535" lon="10.53855075796345"><ele>157.33333333333331</ele><time>2026-04-02T16:15:41.933Z</time></trkpt><trkpt lat="45.37666633094618" lon="10.538630645673337"><ele>156.16666666666666</ele><time>2026-04-02T16:15:44.933Z</time></trkpt><trkpt lat="45.37661578844699" lon="10.53872614926193"><ele>155.0</ele><time>2026-04-02T16:15:46.932Z</time></trkpt><trkpt lat="45.3765617526459" lon="10.538813901073134"><ele>155.0</ele><time>2026-04-02T16:15:48.932Z</time></trkpt><trkpt lat="45.376519976899665" lon="10.538888605082594"><ele>155.0</ele><time>2026-04-02T16:15:50.932Z</time></trkpt><trkpt lat="45.37645344003751" lon="10.538984356847772"><ele>155.0</ele><time>2026-04-02T16:15:53.932Z</time></trkpt><trkpt lat="45.37640612437635" lon="10.539058880053139"><ele>155.0</ele><time>2026-04-02T16:15:55.932Z</time></trkpt><trkpt lat="45.37634821625915" lon="10.539099342522025"><ele>155.0</ele><time>2026-04-02T16:15:57.932Z</time></trkpt><trkpt lat="45.37630356728633" lon="10.53917398355127"><ele>155.0</ele><time>2026-04-02T16:15:59.932Z</time></trkpt><trkpt lat="45.37623840337871" lon="10.539264914816556"><ele>154.33333333333331</ele><time>2026-04-02T16:16:02.932Z</time></trkpt><trkpt lat="45.37619852925469" lon="10.53936033637302"><ele>153.66666666666666</ele><time>2026-04-02T16:16:05.932Z</time></trkpt><trkpt lat="45.37618122312639" lon="10.539463646255408"><ele>153.0</ele><time>2026-04-02T16:16:08.932Z</time></trkpt><trkpt lat="45.37616734871079" lon="10.53957834333114"><ele>152.33333333333334</ele><time>2026-04-02T16:16:11.932Z</time></trkpt><trkpt lat="45.37615831214524" lon="10.539685984447535"><ele>151.66666666666669</ele><time>2026-04-02T16:16:14.932Z</time></trkpt><trkpt lat="45.37610176257143" lon="10.539756408105207"><ele>151.0</ele><time>2026-04-02T16:16:17.932Z</time></trkpt><trkpt lat="45.376019184305335" lon="10.539763229353685"><ele>151.0</ele><time>2026-04-02T16:16:20.931Z</time></trkpt><trkpt lat="45.37593432248729" lon="10.539800528929133"><ele>151.0</ele><time>2026-04-02T16:16:23.931Z</time></trkpt><trkpt lat="45.37584335583817" lon="10.539817030458192"><ele>151.0</ele><time>2026-04-02T16:16:26.931Z</time></trkpt><trkpt lat="45.3757805342587" lon="10.539828434652282"><ele>151.0</ele><time>2026-04-02T16:16:28.931Z</time></trkpt><trkpt lat="45.375713900885906" lon="10.539829679998952"><ele>151.0</ele><time>2026-04-02T16:16:30.931Z</time></trkpt><trkpt lat="45.375637527107784" lon="10.539833607976485"><ele>151.0</ele><time>2026-04-02T16:16:32.931Z</time></trkpt><trkpt lat="45.37556153959623" lon="10.539830368456471"><ele>150.16666666666669</ele><time>2026-04-02T16:16:34.931Z</time></trkpt><trkpt lat="45.3754773671897" lon="10.53984042014571"><ele>149.33333333333334</ele><time>2026-04-02T16:16:36.931Z</time></trkpt><trkpt lat="45.37540896753751" lon="10.53985570678632"><ele>148.5</ele><time>2026-04-02T16:16:38.931Z</time></trkpt><trkpt lat="45.37532499124507" lon="10.539850637640065"><ele>147.66666666666666</ele><time>2026-04-02T16:16:40.931Z</time></trkpt><trkpt lat="45.375246732558004" lon="10.53984713283395"><ele>146.83333333333331</ele><time>2026-04-02T16:16:42.931Z</time></trkpt><trkpt lat="45.37516970145208" lon="10.539838376816602"><ele>146.0</ele><time>2026-04-02T16:16:44.931Z</time></trkpt><trkpt lat="45.375085770867116" lon="10.539854629842896"><ele>146.0</ele><time>2026-04-02T16:16:46.931Z</time></trkpt><trkpt lat="45.37500867495102" lon="10.539846160014399"><ele>146.0</ele><time>2026-04-02T16:16:48.931Z</time></trkpt><trkpt lat="45.374925145217524" lon="10.539819556651757"><ele>146.0</ele><time>2026-04-02T16:16:50.931Z</time></trkpt><trkpt lat="45.374850343994844" lon="10.53978895684617"><ele>146.0</ele><time>2026-04-02T16:16:52.931Z</time></trkpt><trkpt lat="45.37476698360283" lon="10.539777639365585"><ele>146.0</ele><time>2026-04-02T16:16:54.931Z</time></trkpt><trkpt lat="45.37468499375518" lon="10.539769511636253"><ele>146.0</ele><time>2026-04-02T16:16:56.931Z</time></trkpt><trkpt lat="45.37460410497905" lon="10.539762569509483"><ele>145.0</ele><time>2026-04-02T16:16:58.931Z</time></trkpt><trkpt lat="45.37452140952385" lon="10.53974205843224"><ele>144.0</ele><time>2026-04-02T16:17:00.93Z</time></trkpt><trkpt lat="45.374452004699364" lon="10.539718737463092"><ele>143.0</ele><time>2026-04-02T16:17:02.93Z</time></trkpt><trkpt lat="45.37437683282636" lon="10.539683279965779"><ele>142.0</ele><time>2026-04-02T16:17:04.93Z</time></trkpt><trkpt lat="45.37429064516372" lon="10.53963633872487"><ele>141.0</ele><time>2026-04-02T16:17:06.93Z</time></trkpt><trkpt lat="45.37422389252585" lon="10.539551634258622"><ele>140.0</ele><time>2026-04-02T16:17:08.93Z</time></trkpt><trkpt lat="45.37418124662553" lon="10.539434093744287"><ele>138.85714285714286</ele><time>2026-04-02T16:17:10.93Z</time></trkpt><trkpt lat="45.374172248422376" lon="10.53931932935866"><ele>137.71428571428572</ele><time>2026-04-02T16:17:12.93Z</time></trkpt><trkpt lat="45.374181822773984" lon="10.5392076639534"><ele>136.57142857142856</ele><time>2026-04-02T16:17:14.93Z</time></trkpt><trkpt lat="45.37418164740001" lon="10.539106983114753"><ele>135.42857142857144</ele><time>2026-04-02T16:17:16.93Z</time></trkpt><trkpt lat="45.37417862317094" lon="10.539010357622026"><ele>134.28571428571428</ele><time>2026-04-02T16:17:18.93Z</time></trkpt><trkpt lat="45.37419400599108" lon="10.538902019016266"><ele>133.14285714285714</ele><time>2026-04-02T16:17:20.93Z</time></trkpt><trkpt lat="45.37421118510523" lon="10.538803617891864"><ele>132.0</ele><time>2026-04-02T16:17:22.93Z</time></trkpt><trkpt lat="45.374224746183415" lon="10.538707460087885"><ele>131.57142857142856</ele><time>2026-04-02T16:17:24.93Z</time></trkpt><trkpt lat="45.374241814539864" lon="10.538610922997977"><ele>131.14285714285714</ele><time>2026-04-02T16:17:26.93Z</time></trkpt><trkpt lat="45.37426285148701" lon="10.538501563635386"><ele>130.71428571428572</ele><time>2026-04-02T16:17:28.93Z</time></trkpt><trkpt lat="45.374277774219806" lon="10.53840494729451"><ele>130.28571428571428</ele><time>2026-04-02T16:17:30.93Z</time></trkpt><trkpt lat="45.37429747120417" lon="10.538280326145967"><ele>129.85714285714286</ele><time>2026-04-02T16:17:33.93Z</time></trkpt><trkpt lat="45.37429997535687" lon="10.538185648791332"><ele>129.42857142857142</ele><time>2026-04-02T16:17:35.93Z</time></trkpt><trkpt lat="45.37430624947085" lon="10.538087909828379"><ele>129.0</ele><time>2026-04-02T16:17:37.93Z</time></trkpt><trkpt lat="45.374311105723116" lon="10.53798870947971"><ele>128.83333333333334</ele><time>2026-04-02T16:17:39.929Z</time></trkpt><trkpt lat="45.3743122394625" lon="10.537850088187357"><ele>128.66666666666666</ele><time>2026-04-02T16:17:42.929Z</time></trkpt><trkpt lat="45.37431521323374" lon="10.537747995547845"><ele>128.5</ele><time>2026-04-02T16:17:44.93Z</time></trkpt><trkpt lat="45.374320508922374" lon="10.537654906103088"><ele>128.33333333333331</ele><time>2026-04-02T16:17:46.929Z</time></trkpt><trkpt lat="45.37432439609091" lon="10.537525539731014"><ele>128.16666666666666</ele><time>2026-04-02T16:17:49.929Z</time></trkpt><trkpt lat="45.3743282759124" lon="10.537424321905936"><ele>128.0</ele><time>2026-04-02T16:17:51.93Z</time></trkpt><trkpt lat="45.37433045666229" lon="10.53732529509913"><ele>128.0</ele><time>2026-04-02T16:17:53.929Z</time></trkpt><trkpt lat="45.37433205347632" lon="10.537223542653056"><ele>127.99999999999999</ele><time>2026-04-02T16:17:55.929Z</time></trkpt><trkpt lat="45.37433861146956" lon="10.537122970542653"><ele>128.0</ele><time>2026-04-02T16:17:58.929Z</time></trkpt><trkpt lat="45.37435715159806" lon="10.537017013587512"><ele>128.0</ele><time>2026-04-02T16:18:02.929Z</time></trkpt><trkpt lat="45.3743705993634" lon="10.536898244792944"><ele>127.99999999999999</ele><time>2026-04-02T16:18:06.928Z</time></trkpt><trkpt lat="45.374377731171364" lon="10.536800215283957"><ele>128.0</ele><time>2026-04-02T16:18:10.928Z</time></trkpt><trkpt lat="45.374375406862356" lon="10.536700809275272"><ele>128.0</ele><time>2026-04-02T16:18:13.928Z</time></trkpt><trkpt lat="45.37437018991738" lon="10.536584193713473"><ele>128.85714285714286</ele><time>2026-04-02T16:18:17.928Z</time></trkpt><trkpt lat="45.37438249369925" lon="10.536489265481348"><ele>129.7142857142857</ele><time>2026-04-02T16:18:20.928Z</time></trkpt><trkpt lat="45.37438857982501" lon="10.536379215342567"><ele>130.57142857142856</ele><time>2026-04-02T16:18:24.928Z</time></trkpt><trkpt lat="45.374400379086815" lon="10.536282028917633"><ele>131.42857142857142</ele><time>2026-04-02T16:18:27.928Z</time></trkpt><trkpt lat="45.374395291930355" lon="10.536174614469042"><ele>132.28571428571428</ele><time>2026-04-02T16:18:30.928Z</time></trkpt><trkpt lat="45.374385109141635" lon="10.536075699591086"><ele>133.14285714285714</ele><time>2026-04-02T16:18:32.928Z</time></trkpt><trkpt lat="45.37436741237843" lon="10.535961617002465"><ele>134.0</ele><time>2026-04-02T16:18:35.928Z</time></trkpt><trkpt lat="45.37436186018099" lon="10.53587006762701"><ele>135.5</ele><time>2026-04-02T16:18:38.928Z</time></trkpt><trkpt lat="45.374375573871745" lon="10.535757857875625"><ele>137.0</ele><time>2026-04-02T16:18:41.928Z</time></trkpt><trkpt lat="45.374400438804706" lon="10.535644350490136"><ele>138.5</ele><time>2026-04-02T16:18:44.928Z</time></trkpt><trkpt lat="45.374410875413055" lon="10.535547938730147"><ele>140.0</ele><time>2026-04-02T16:18:46.928Z</time></trkpt><trkpt lat="45.374418285178905" lon="10.535437745648661"><ele>141.5</ele><time>2026-04-02T16:18:48.927Z</time></trkpt><trkpt lat="45.37441867389193" lon="10.535334871639469"><ele>143.0</ele><time>2026-04-02T16:18:50.927Z</time></trkpt><trkpt lat="45.37442030179401" lon="10.535208025199736"><ele>143.0</ele><time>2026-04-02T16:18:52.927Z</time></trkpt><trkpt lat="45.37444821379024" lon="10.535099606010032"><ele>143.0</ele><time>2026-04-02T16:18:54.927Z</time></trkpt><trkpt lat="45.37447124038008" lon="10.534974528321928"><ele>143.0</ele><time>2026-04-02T16:18:57.927Z</time></trkpt><trkpt lat="45.37450366971813" lon="10.534853022744498"><ele>143.0</ele><time>2026-04-02T16:19:00.927Z</time></trkpt><trkpt lat="45.37451307465384" lon="10.534736277458764"><ele>143.0</ele><time>2026-04-02T16:19:03.927Z</time></trkpt><trkpt lat="45.37453544142809" lon="10.53462764043829"><ele>143.0</ele><time>2026-04-02T16:19:06.927Z</time></trkpt><trkpt lat="45.374578222622674" lon="10.534547644298074"><ele>143.0</ele><time>2026-04-02T16:19:09.927Z</time></trkpt><trkpt lat="45.37462344993078" lon="10.53444551244838"><ele>143.0</ele><time>2026-04-02T16:19:13.927Z</time></trkpt><trkpt lat="45.37468904744407" lon="10.534351567941503"><ele>143.0</ele><time>2026-04-02T16:19:16.927Z</time></trkpt><trkpt lat="45.374747585556094" lon="10.534315999590016"><ele>143.0</ele><time>2026-04-02T16:19:19.927Z</time></trkpt><trkpt lat="45.374831874865706" lon="10.534343868807223"><ele>143.0</ele><time>2026-04-02T16:19:22.927Z</time></trkpt><trkpt lat="45.37489619187234" lon="10.534328857439785"><ele>143.0</ele><time>2026-04-02T16:19:24.927Z</time></trkpt><trkpt lat="45.375020467448394" lon="10.534327611285553"><ele>141.66666666666666</ele><time>2026-04-02T16:19:28.926Z</time></trkpt><trkpt lat="45.3751147914166" lon="10.534336308378219"><ele>140.33333333333331</ele><time>2026-04-02T16:19:31.926Z</time></trkpt><trkpt lat="45.375176763534995" lon="10.534352396765508"><ele>139.0</ele><time>2026-04-02T16:19:33.926Z</time></trkpt><trkpt lat="45.375240037911404" lon="10.534337463167375"><ele>137.66666666666666</ele><time>2026-04-02T16:19:35.926Z</time></trkpt><trkpt lat="45.37528815254036" lon="10.534239066773237"><ele>136.33333333333334</ele><time>2026-04-02T16:19:38.926Z</time></trkpt><trkpt lat="45.37530404385023" lon="10.534136164149874"><ele>135.0</ele><time>2026-04-02T16:19:41.926Z</time></trkpt><trkpt lat="45.37532574236552" lon="10.5340268218727"><ele>135.0</ele><time>2026-04-02T16:19:44.926Z</time></trkpt><trkpt lat="45.37533514927648" lon="10.533903374705275"><ele>135.0</ele><time>2026-04-02T16:19:47.926Z</time></trkpt><trkpt lat="45.37534711233205" lon="10.533808799640601"><ele>135.0</ele><time>2026-04-02T16:19:49.926Z</time></trkpt><trkpt lat="45.37535940336415" lon="10.533719388705206"><ele>135.0</ele><time>2026-04-02T16:19:51.925Z</time></trkpt><trkpt lat="45.37536165084952" lon="10.533602471301576"><ele>135.0</ele><time>2026-04-02T16:19:53.926Z</time></trkpt><trkpt lat="45.37536615268277" lon="10.533488702749832"><ele>135.0</ele><time>2026-04-02T16:19:55.926Z</time></trkpt><trkpt lat="45.375373153759995" lon="10.533399139738838"><ele>135.0</ele><time>2026-04-02T16:19:57.925Z</time></trkpt><trkpt lat="45.37537991310255" lon="10.533263290340399"><ele>134.57142857142856</ele><time>2026-04-02T16:20:00.926Z</time></trkpt><trkpt lat="45.37537457359762" lon="10.533172571306014"><ele>134.14285714285714</ele><time>2026-04-02T16:20:02.925Z</time></trkpt><trkpt lat="45.375376101084576" lon="10.53306127362974"><ele>133.71428571428572</ele><time>2026-04-02T16:20:05.925Z</time></trkpt><trkpt lat="45.37538002620753" lon="10.532957468797397"><ele>133.28571428571428</ele><time>2026-04-02T16:20:08.925Z</time></trkpt><trkpt lat="45.375365138779685" lon="10.532858784748788"><ele>132.85714285714286</ele><time>2026-04-02T16:20:11.925Z</time></trkpt><trkpt lat="45.37536448452592" lon="10.532738699885112"><ele>132.42857142857142</ele><time>2026-04-02T16:20:13.925Z</time></trkpt><trkpt lat="45.37537519754959" lon="10.532646969063416"><ele>132.0</ele><time>2026-04-02T16:20:15.925Z</time></trkpt><trkpt lat="45.37537850901118" lon="10.53255304982691"><ele>131.28571428571428</ele><time>2026-04-02T16:20:17.925Z</time></trkpt><trkpt lat="45.37537666722753" lon="10.53246303894008"><ele>130.57142857142858</ele><time>2026-04-02T16:20:19.925Z</time></trkpt><trkpt lat="45.375350849030156" lon="10.532336325634946"><ele>129.85714285714286</ele><time>2026-04-02T16:20:22.925Z</time></trkpt><trkpt lat="45.375354496076234" lon="10.532224388410224"><ele>129.14285714285714</ele><time>2026-04-02T16:20:25.925Z</time></trkpt><trkpt lat="45.37534137559815" lon="10.532122850607477"><ele>128.42857142857142</ele><time>2026-04-02T16:20:28.925Z</time></trkpt><trkpt lat="45.375328584840545" lon="10.532032268621036"><ele>127.71428571428572</ele><time>2026-04-02T16:20:31.925Z</time></trkpt><trkpt lat="45.375332790733985" lon="10.531937771888904"><ele>127.0</ele><time>2026-04-02T16:20:35.925Z</time></trkpt><trkpt lat="45.375358261707916" lon="10.531848170728837"><ele>126.57142857142858</ele><time>2026-04-02T16:20:54.924Z</time></trkpt><trkpt lat="45.375346388487515" lon="10.531751181035897"><ele>126.14285714285714</ele><time>2026-04-02T16:20:59.924Z</time></trkpt><trkpt lat="45.37536919499113" lon="10.531657529081292"><ele>125.71428571428572</ele><time>2026-04-02T16:21:04.924Z</time></trkpt><trkpt lat="45.37538094833564" lon="10.531566238510536"><ele>125.28571428571429</ele><time>2026-04-02T16:21:10.924Z</time></trkpt><trkpt lat="45.37542487948011" lon="10.531490163551762"><ele>124.85714285714286</ele><time>2026-04-02T16:21:14.924Z</time></trkpt><trkpt lat="45.375434943513035" lon="10.531398699948012"><ele>124.42857142857143</ele><time>2026-04-02T16:21:21.924Z</time></trkpt><trkpt lat="45.3754395653302" lon="10.531301613881087"><ele>124.0</ele><time>2026-04-02T16:21:33.923Z</time></trkpt><trkpt lat="45.375433241068755" lon="10.53120332969358"><ele>123.57142857142858</ele><time>2026-04-02T16:21:42.923Z</time></trkpt><trkpt lat="45.37539698567139" lon="10.531121598322779"><ele>123.14285714285715</ele><time>2026-04-02T16:21:50.923Z</time></trkpt><trkpt lat="45.375378102805286" lon="10.531035198552363"><ele>122.71428571428572</ele><time>2026-04-02T16:21:57.922Z</time></trkpt><trkpt lat="45.37536180352427" lon="10.530930852638908"><ele>122.28571428571428</ele><time>2026-04-02T16:22:01.923Z</time></trkpt><trkpt lat="45.3753694328819" lon="10.530828492767542"><ele>121.85714285714285</ele><time>2026-04-02T16:22:04.923Z</time></trkpt><trkpt lat="45.37537102423341" lon="10.530730176796856"><ele>121.42857142857142</ele><time>2026-04-02T16:22:09.922Z</time></trkpt><trkpt lat="45.37530787336732" lon="10.530675620640553"><ele>121.0</ele><time>2026-04-02T16:22:16.922Z</time></trkpt><trkpt lat="45.37525603958337" lon="10.530601672641533"><ele>121.0</ele><time>2026-04-02T16:22:24.922Z</time></trkpt><trkpt lat="45.375233325634824" lon="10.530507473537353"><ele>120.99999999999999</ele><time>2026-04-02T16:22:29.922Z</time></trkpt><trkpt lat="45.375214258925155" lon="10.530405707981222"><ele>121.0</ele><time>2026-04-02T16:22:33.922Z</time></trkpt><trkpt lat="45.37521454979565" lon="10.530299844271036"><ele>121.0</ele><time>2026-04-02T16:22:38.922Z</time></trkpt><trkpt lat="45.37521825704407" lon="10.530168594243705"><ele>120.99999999999999</ele><time>2026-04-02T16:22:42.922Z</time></trkpt><trkpt lat="45.375231575005174" lon="10.530075785915848"><ele>121.0</ele><time>2026-04-02T16:22:45.922Z</time></trkpt><trkpt lat="45.37523813588097" lon="10.529973407170473"><ele>121.0</ele><time>2026-04-02T16:22:48.922Z</time></trkpt><trkpt lat="45.37521712653897" lon="10.529882022040114"><ele>121.0</ele><time>2026-04-02T16:22:54.921Z</time></trkpt><trkpt lat="45.37517040049814" lon="10.52980811127965"><ele>120.99999999999999</ele><time>2026-04-02T16:23:03.921Z</time></trkpt><trkpt lat="45.37516002909707" lon="10.529708057724486"><ele>121.0</ele><time>2026-04-02T16:23:07.921Z</time></trkpt><trkpt lat="45.37518389156773" lon="10.52960090257885"><ele>121.0</ele><time>2026-04-02T16:23:11.921Z</time></trkpt><trkpt lat="45.37522378394368" lon="10.529502676774863"><ele>120.99999999999999</ele><time>2026-04-02T16:23:16.921Z</time></trkpt><trkpt lat="45.37529179048111" lon="10.529433475956788"><ele>121.0</ele><time>2026-04-02T16:23:19.921Z</time></trkpt><trkpt lat="45.37535085399652" lon="10.529399840773912"><ele>121.0</ele><time>2026-04-02T16:23:23.921Z</time></trkpt><trkpt lat="45.37541417588785" lon="10.529377043099771"><ele>117.0</ele><time>2026-04-02T16:23:31.92Z</time></trkpt></trkseg></trk></gpx>